<?xml version="1.0" encoding="UTF-8" standalone="no" ?>
<gpx xmlns="http://www.topografix.com/GPX/1/1" xmlns:xsi="http://www.w3.org/2001/XMLSchema-instance" xsi:schemaLocation="http://www.topografix.com/GPX/1/1 http://www.topografix.com/GPX/1/1/gpx.xsd" version="1.1" creator="VisuGPX - https://www.visugpx.com">
  <metadata>
    <name>beaumont le roger 12-12 10:20:29</name>
  </metadata>
  <trk>
    <name><![CDATA[AAA0-12-12 10:20:29]]></name>
    <trkseg>
      <trkpt lat="49.08464" lon="0.76125">
        <ele>83.77</ele>
        <time>2020-12-12T07:23:43Z</time>
      </trkpt>
      <trkpt lat="49.08464" lon="0.76124">
        <ele>83.77</ele>
        <time>2020-12-12T07:23:44Z</time>
      </trkpt>
      <trkpt lat="49.08469" lon="0.76125">
        <ele>80.89</ele>
        <time>2020-12-12T07:24:09Z</time>
      </trkpt>
      <trkpt lat="49.08459" lon="0.76129">
        <ele>78</ele>
        <time>2020-12-12T07:48:42Z</time>
      </trkpt>
      <trkpt lat="49.08464" lon="0.76126">
        <ele>81.37</ele>
        <time>2020-12-12T07:49:10Z</time>
      </trkpt>
      <trkpt lat="49.08466" lon="0.76126">
        <ele>84.25</ele>
        <time>2020-12-12T07:49:26Z</time>
      </trkpt>
      <trkpt lat="49.08465" lon="0.76124">
        <ele>87.62</ele>
        <time>2020-12-12T07:49:50Z</time>
      </trkpt>
      <trkpt lat="49.0847" lon="0.76126">
        <ele>88.58</ele>
        <time>2020-12-12T07:50:09Z</time>
      </trkpt>
      <trkpt lat="49.08474" lon="0.76131">
        <ele>88.58</ele>
        <time>2020-12-12T07:50:25Z</time>
      </trkpt>
      <trkpt lat="49.08472" lon="0.76127">
        <ele>88.58</ele>
        <time>2020-12-12T07:50:57Z</time>
      </trkpt>
      <trkpt lat="49.08476" lon="0.76133">
        <ele>89.54</ele>
        <time>2020-12-12T07:51:07Z</time>
      </trkpt>
      <trkpt lat="49.08478" lon="0.76133">
        <ele>89.54</ele>
        <time>2020-12-12T07:51:16Z</time>
      </trkpt>
      <trkpt lat="49.08484" lon="0.76124">
        <ele>89.54</ele>
        <time>2020-12-12T07:51:22Z</time>
      </trkpt>
      <trkpt lat="49.08484" lon="0.7612">
        <ele>89.54</ele>
        <time>2020-12-12T07:51:23Z</time>
      </trkpt>
      <trkpt lat="49.08485" lon="0.76118">
        <ele>89.54</ele>
        <time>2020-12-12T07:51:24Z</time>
      </trkpt>
      <trkpt lat="49.08504" lon="0.76047">
        <ele>89.06</ele>
        <time>2020-12-12T07:51:38Z</time>
      </trkpt>
      <trkpt lat="49.08509" lon="0.76027">
        <ele>89.06</ele>
        <time>2020-12-12T07:51:41Z</time>
      </trkpt>
      <trkpt lat="49.0851" lon="0.7602">
        <ele>88.1</ele>
        <time>2020-12-12T07:51:42Z</time>
      </trkpt>
      <trkpt lat="49.08512" lon="0.76013">
        <ele>88.1</ele>
        <time>2020-12-12T07:51:43Z</time>
      </trkpt>
      <trkpt lat="49.08513" lon="0.76006">
        <ele>87.62</ele>
        <time>2020-12-12T07:51:44Z</time>
      </trkpt>
      <trkpt lat="49.08514" lon="0.75999">
        <ele>87.62</ele>
        <time>2020-12-12T07:51:45Z</time>
      </trkpt>
      <trkpt lat="49.08515" lon="0.75993">
        <ele>87.62</ele>
        <time>2020-12-12T07:51:46Z</time>
      </trkpt>
      <trkpt lat="49.08518" lon="0.75988">
        <ele>87.62</ele>
        <time>2020-12-12T07:51:47Z</time>
      </trkpt>
      <trkpt lat="49.08522" lon="0.75986">
        <ele>87.62</ele>
        <time>2020-12-12T07:51:48Z</time>
      </trkpt>
      <trkpt lat="49.08526" lon="0.75988">
        <ele>87.14</ele>
        <time>2020-12-12T07:51:49Z</time>
      </trkpt>
      <trkpt lat="49.0853" lon="0.75992">
        <ele>87.14</ele>
        <time>2020-12-12T07:51:50Z</time>
      </trkpt>
      <trkpt lat="49.08533" lon="0.75998">
        <ele>87.14</ele>
        <time>2020-12-12T07:51:51Z</time>
      </trkpt>
      <trkpt lat="49.08537" lon="0.76004">
        <ele>86.66</ele>
        <time>2020-12-12T07:51:52Z</time>
      </trkpt>
      <trkpt lat="49.0854" lon="0.7601">
        <ele>86.66</ele>
        <time>2020-12-12T07:51:53Z</time>
      </trkpt>
      <trkpt lat="49.08548" lon="0.76024">
        <ele>86.18</ele>
        <time>2020-12-12T07:51:55Z</time>
      </trkpt>
      <trkpt lat="49.08609" lon="0.76116">
        <ele>84.73</ele>
        <time>2020-12-12T07:52:09Z</time>
      </trkpt>
      <trkpt lat="49.08681" lon="0.76234">
        <ele>84.25</ele>
        <time>2020-12-12T07:52:26Z</time>
      </trkpt>
      <trkpt lat="49.08719" lon="0.76292">
        <ele>81.37</ele>
        <time>2020-12-12T07:52:35Z</time>
      </trkpt>
      <trkpt lat="49.08754" lon="0.76326">
        <ele>84.73</ele>
        <time>2020-12-12T07:53:17Z</time>
      </trkpt>
      <trkpt lat="49.08754" lon="0.76326">
        <ele>84.73</ele>
        <time>2020-12-12T07:53:18Z</time>
      </trkpt>
      <trkpt lat="49.08753" lon="0.76327">
        <ele>83.29</ele>
        <time>2020-12-12T07:53:21Z</time>
      </trkpt>
      <trkpt lat="49.08753" lon="0.76326">
        <ele>83.29</ele>
        <time>2020-12-12T07:53:27Z</time>
      </trkpt>
      <trkpt lat="49.08759" lon="0.76314">
        <ele>83.29</ele>
        <time>2020-12-12T07:53:31Z</time>
      </trkpt>
      <trkpt lat="49.08763" lon="0.7631">
        <ele>82.81</ele>
        <time>2020-12-12T07:53:32Z</time>
      </trkpt>
      <trkpt lat="49.08768" lon="0.76305">
        <ele>82.81</ele>
        <time>2020-12-12T07:53:33Z</time>
      </trkpt>
      <trkpt lat="49.08773" lon="0.76302">
        <ele>82.81</ele>
        <time>2020-12-12T07:53:34Z</time>
      </trkpt>
      <trkpt lat="49.08778" lon="0.76298">
        <ele>82.33</ele>
        <time>2020-12-12T07:53:35Z</time>
      </trkpt>
      <trkpt lat="49.08793" lon="0.76288">
        <ele>82.33</ele>
        <time>2020-12-12T07:53:38Z</time>
      </trkpt>
      <trkpt lat="49.08798" lon="0.76283">
        <ele>82.33</ele>
        <time>2020-12-12T07:53:39Z</time>
      </trkpt>
      <trkpt lat="49.08862" lon="0.76191">
        <ele>81.85</ele>
        <time>2020-12-12T07:53:55Z</time>
      </trkpt>
      <trkpt lat="49.08929" lon="0.76037">
        <ele>81.37</ele>
        <time>2020-12-12T07:54:16Z</time>
      </trkpt>
      <trkpt lat="49.08997" lon="0.75888">
        <ele>80.89</ele>
        <time>2020-12-12T07:54:37Z</time>
      </trkpt>
      <trkpt lat="49.09066" lon="0.75747">
        <ele>80.89</ele>
        <time>2020-12-12T07:54:57Z</time>
      </trkpt>
      <trkpt lat="49.09138" lon="0.75648">
        <ele>79.93</ele>
        <time>2020-12-12T07:55:14Z</time>
      </trkpt>
      <trkpt lat="49.0914" lon="0.75642">
        <ele>79.93</ele>
        <time>2020-12-12T07:55:15Z</time>
      </trkpt>
      <trkpt lat="49.09143" lon="0.75637">
        <ele>80.41</ele>
        <time>2020-12-12T07:55:16Z</time>
      </trkpt>
      <trkpt lat="49.09162" lon="0.75584">
        <ele>79.93</ele>
        <time>2020-12-12T07:55:26Z</time>
      </trkpt>
      <trkpt lat="49.09176" lon="0.7549">
        <ele>79.93</ele>
        <time>2020-12-12T07:55:42Z</time>
      </trkpt>
      <trkpt lat="49.09194" lon="0.75421">
        <ele>79.45</ele>
        <time>2020-12-12T07:55:55Z</time>
      </trkpt>
      <trkpt lat="49.0923" lon="0.75359">
        <ele>79.45</ele>
        <time>2020-12-12T07:56:10Z</time>
      </trkpt>
      <trkpt lat="49.09248" lon="0.75285">
        <ele>78.48</ele>
        <time>2020-12-12T07:56:25Z</time>
      </trkpt>
      <trkpt lat="49.09255" lon="0.75229">
        <ele>78.48</ele>
        <time>2020-12-12T07:56:37Z</time>
      </trkpt>
      <trkpt lat="49.0926" lon="0.75177">
        <ele>78.48</ele>
        <time>2020-12-12T07:56:48Z</time>
      </trkpt>
      <trkpt lat="49.09275" lon="0.75121">
        <ele>78.48</ele>
        <time>2020-12-12T07:57:01Z</time>
      </trkpt>
      <trkpt lat="49.09277" lon="0.75113">
        <ele>78.48</ele>
        <time>2020-12-12T07:57:03Z</time>
      </trkpt>
      <trkpt lat="49.09279" lon="0.7511">
        <ele>78.48</ele>
        <time>2020-12-12T07:57:04Z</time>
      </trkpt>
      <trkpt lat="49.09281" lon="0.75108">
        <ele>78.48</ele>
        <time>2020-12-12T07:57:05Z</time>
      </trkpt>
      <trkpt lat="49.09284" lon="0.75107">
        <ele>78.48</ele>
        <time>2020-12-12T07:57:06Z</time>
      </trkpt>
      <trkpt lat="49.09287" lon="0.75106">
        <ele>78.48</ele>
        <time>2020-12-12T07:57:07Z</time>
      </trkpt>
      <trkpt lat="49.09337" lon="0.75115">
        <ele>78.48</ele>
        <time>2020-12-12T07:57:20Z</time>
      </trkpt>
      <trkpt lat="49.09394" lon="0.75141">
        <ele>78.48</ele>
        <time>2020-12-12T07:57:34Z</time>
      </trkpt>
      <trkpt lat="49.09398" lon="0.75144">
        <ele>78.48</ele>
        <time>2020-12-12T07:57:35Z</time>
      </trkpt>
      <trkpt lat="49.09453" lon="0.75177">
        <ele>78.48</ele>
        <time>2020-12-12T07:57:50Z</time>
      </trkpt>
      <trkpt lat="49.09516" lon="0.75227">
        <ele>78.48</ele>
        <time>2020-12-12T07:58:05Z</time>
      </trkpt>
      <trkpt lat="49.09553" lon="0.75252">
        <ele>78</ele>
        <time>2020-12-12T07:58:13Z</time>
      </trkpt>
      <trkpt lat="49.09574" lon="0.75261">
        <ele>78</ele>
        <time>2020-12-12T07:58:17Z</time>
      </trkpt>
      <trkpt lat="49.09579" lon="0.75263">
        <ele>78</ele>
        <time>2020-12-12T07:58:18Z</time>
      </trkpt>
      <trkpt lat="49.09584" lon="0.75265">
        <ele>78</ele>
        <time>2020-12-12T07:58:19Z</time>
      </trkpt>
      <trkpt lat="49.0963" lon="0.75288">
        <ele>78</ele>
        <time>2020-12-12T07:58:28Z</time>
      </trkpt>
      <trkpt lat="49.09635" lon="0.75293">
        <ele>78</ele>
        <time>2020-12-12T07:58:29Z</time>
      </trkpt>
      <trkpt lat="49.0964" lon="0.75297">
        <ele>78</ele>
        <time>2020-12-12T07:58:30Z</time>
      </trkpt>
      <trkpt lat="49.09675" lon="0.7534">
        <ele>78</ele>
        <time>2020-12-12T07:58:38Z</time>
      </trkpt>
      <trkpt lat="49.09678" lon="0.75345">
        <ele>78</ele>
        <time>2020-12-12T07:58:39Z</time>
      </trkpt>
      <trkpt lat="49.0968" lon="0.75351">
        <ele>78</ele>
        <time>2020-12-12T07:58:40Z</time>
      </trkpt>
      <trkpt lat="49.09697" lon="0.75398">
        <ele>78</ele>
        <time>2020-12-12T07:58:48Z</time>
      </trkpt>
      <trkpt lat="49.09699" lon="0.75404">
        <ele>78</ele>
        <time>2020-12-12T07:58:49Z</time>
      </trkpt>
      <trkpt lat="49.09729" lon="0.75488">
        <ele>78</ele>
        <time>2020-12-12T07:59:02Z</time>
      </trkpt>
      <trkpt lat="49.09732" lon="0.75493">
        <ele>78</ele>
        <time>2020-12-12T07:59:03Z</time>
      </trkpt>
      <trkpt lat="49.09736" lon="0.75498">
        <ele>78</ele>
        <time>2020-12-12T07:59:04Z</time>
      </trkpt>
      <trkpt lat="49.09772" lon="0.75546">
        <ele>78</ele>
        <time>2020-12-12T07:59:17Z</time>
      </trkpt>
      <trkpt lat="49.09793" lon="0.75609">
        <ele>78</ele>
        <time>2020-12-12T07:59:32Z</time>
      </trkpt>
      <trkpt lat="49.0977" lon="0.75635">
        <ele>78.97</ele>
        <time>2020-12-12T07:59:42Z</time>
      </trkpt>
      <trkpt lat="49.09742" lon="0.75681">
        <ele>80.41</ele>
        <time>2020-12-12T07:59:55Z</time>
      </trkpt>
      <trkpt lat="49.09728" lon="0.75715">
        <ele>83.77</ele>
        <time>2020-12-12T08:00:06Z</time>
      </trkpt>
      <trkpt lat="49.09718" lon="0.75755">
        <ele>86.18</ele>
        <time>2020-12-12T08:00:19Z</time>
      </trkpt>
      <trkpt lat="49.09714" lon="0.75787">
        <ele>89.54</ele>
        <time>2020-12-12T08:00:34Z</time>
      </trkpt>
      <trkpt lat="49.09709" lon="0.75818">
        <ele>92.42</ele>
        <time>2020-12-12T08:00:47Z</time>
      </trkpt>
      <trkpt lat="49.09707" lon="0.75837">
        <ele>94.35</ele>
        <time>2020-12-12T08:00:57Z</time>
      </trkpt>
      <trkpt lat="49.09706" lon="0.75839">
        <ele>94.35</ele>
        <time>2020-12-12T08:00:58Z</time>
      </trkpt>
      <trkpt lat="49.09706" lon="0.75841">
        <ele>94.83</ele>
        <time>2020-12-12T08:00:59Z</time>
      </trkpt>
      <trkpt lat="49.09706" lon="0.75843">
        <ele>94.83</ele>
        <time>2020-12-12T08:01:00Z</time>
      </trkpt>
      <trkpt lat="49.09706" lon="0.75845">
        <ele>94.83</ele>
        <time>2020-12-12T08:01:01Z</time>
      </trkpt>
      <trkpt lat="49.09706" lon="0.75846">
        <ele>94.83</ele>
        <time>2020-12-12T08:01:02Z</time>
      </trkpt>
      <trkpt lat="49.09707" lon="0.75848">
        <ele>94.83</ele>
        <time>2020-12-12T08:01:03Z</time>
      </trkpt>
      <trkpt lat="49.09707" lon="0.7585">
        <ele>95.31</ele>
        <time>2020-12-12T08:01:04Z</time>
      </trkpt>
      <trkpt lat="49.09706" lon="0.75852">
        <ele>95.31</ele>
        <time>2020-12-12T08:01:05Z</time>
      </trkpt>
      <trkpt lat="49.09706" lon="0.75855">
        <ele>95.79</ele>
        <time>2020-12-12T08:01:06Z</time>
      </trkpt>
      <trkpt lat="49.09706" lon="0.75857">
        <ele>95.79</ele>
        <time>2020-12-12T08:01:07Z</time>
      </trkpt>
      <trkpt lat="49.09706" lon="0.75859">
        <ele>95.79</ele>
        <time>2020-12-12T08:01:08Z</time>
      </trkpt>
      <trkpt lat="49.09706" lon="0.75861">
        <ele>96.27</ele>
        <time>2020-12-12T08:01:09Z</time>
      </trkpt>
      <trkpt lat="49.09705" lon="0.75863">
        <ele>96.27</ele>
        <time>2020-12-12T08:01:10Z</time>
      </trkpt>
      <trkpt lat="49.09706" lon="0.75867">
        <ele>96.75</ele>
        <time>2020-12-12T08:01:12Z</time>
      </trkpt>
      <trkpt lat="49.09706" lon="0.7587">
        <ele>96.75</ele>
        <time>2020-12-12T08:01:13Z</time>
      </trkpt>
      <trkpt lat="49.09706" lon="0.75872">
        <ele>96.75</ele>
        <time>2020-12-12T08:01:14Z</time>
      </trkpt>
      <trkpt lat="49.09706" lon="0.75874">
        <ele>96.75</ele>
        <time>2020-12-12T08:01:15Z</time>
      </trkpt>
      <trkpt lat="49.09706" lon="0.75877">
        <ele>97.23</ele>
        <time>2020-12-12T08:01:16Z</time>
      </trkpt>
      <trkpt lat="49.09709" lon="0.75915">
        <ele>100.11</ele>
        <time>2020-12-12T08:01:32Z</time>
      </trkpt>
      <trkpt lat="49.09718" lon="0.75954">
        <ele>102.52</ele>
        <time>2020-12-12T08:01:49Z</time>
      </trkpt>
      <trkpt lat="49.09726" lon="0.75988">
        <ele>105.4</ele>
        <time>2020-12-12T08:02:06Z</time>
      </trkpt>
      <trkpt lat="49.09735" lon="0.76025">
        <ele>107.81</ele>
        <time>2020-12-12T08:02:23Z</time>
      </trkpt>
      <trkpt lat="49.09744" lon="0.76053">
        <ele>110.69</ele>
        <time>2020-12-12T08:02:37Z</time>
      </trkpt>
      <trkpt lat="49.09747" lon="0.76059">
        <ele>110.69</ele>
        <time>2020-12-12T08:02:40Z</time>
      </trkpt>
      <trkpt lat="49.09768" lon="0.76059">
        <ele>113.57</ele>
        <time>2020-12-12T08:02:56Z</time>
      </trkpt>
      <trkpt lat="49.09783" lon="0.76054">
        <ele>115.98</ele>
        <time>2020-12-12T08:03:10Z</time>
      </trkpt>
      <trkpt lat="49.09802" lon="0.7604">
        <ele>117.9</ele>
        <time>2020-12-12T08:03:25Z</time>
      </trkpt>
      <trkpt lat="49.09819" lon="0.76023">
        <ele>119.82</ele>
        <time>2020-12-12T08:03:39Z</time>
      </trkpt>
      <trkpt lat="49.09826" lon="0.76018">
        <ele>120.3</ele>
        <time>2020-12-12T08:03:45Z</time>
      </trkpt>
      <trkpt lat="49.0983" lon="0.76016">
        <ele>120.78</ele>
        <time>2020-12-12T08:03:49Z</time>
      </trkpt>
      <trkpt lat="49.09832" lon="0.76014">
        <ele>121.26</ele>
        <time>2020-12-12T08:03:51Z</time>
      </trkpt>
      <trkpt lat="49.09852" lon="0.76006">
        <ele>123.67</ele>
        <time>2020-12-12T08:04:06Z</time>
      </trkpt>
      <trkpt lat="49.0987" lon="0.75998">
        <ele>125.59</ele>
        <time>2020-12-12T08:04:18Z</time>
      </trkpt>
      <trkpt lat="49.09887" lon="0.75991">
        <ele>127.51</ele>
        <time>2020-12-12T08:04:32Z</time>
      </trkpt>
      <trkpt lat="49.09908" lon="0.75979">
        <ele>128.95</ele>
        <time>2020-12-12T08:04:45Z</time>
      </trkpt>
      <trkpt lat="49.09927" lon="0.75967">
        <ele>130.88</ele>
        <time>2020-12-12T08:04:58Z</time>
      </trkpt>
      <trkpt lat="49.09948" lon="0.75949">
        <ele>133.28</ele>
        <time>2020-12-12T08:05:11Z</time>
      </trkpt>
      <trkpt lat="49.09962" lon="0.75941">
        <ele>134.72</ele>
        <time>2020-12-12T08:05:21Z</time>
      </trkpt>
      <trkpt lat="49.0997" lon="0.75939">
        <ele>135.68</ele>
        <time>2020-12-12T08:05:26Z</time>
      </trkpt>
      <trkpt lat="49.09995" lon="0.75943">
        <ele>138.09</ele>
        <time>2020-12-12T08:05:42Z</time>
      </trkpt>
      <trkpt lat="49.10011" lon="0.75945">
        <ele>140.01</ele>
        <time>2020-12-12T08:05:53Z</time>
      </trkpt>
      <trkpt lat="49.1004" lon="0.75922">
        <ele>140.49</ele>
        <time>2020-12-12T08:06:07Z</time>
      </trkpt>
      <trkpt lat="49.10082" lon="0.7589">
        <ele>140.49</ele>
        <time>2020-12-12T08:06:21Z</time>
      </trkpt>
      <trkpt lat="49.10115" lon="0.7586">
        <ele>139.53</ele>
        <time>2020-12-12T08:06:30Z</time>
      </trkpt>
      <trkpt lat="49.10119" lon="0.75857">
        <ele>139.53</ele>
        <time>2020-12-12T08:06:31Z</time>
      </trkpt>
      <trkpt lat="49.10145" lon="0.7583">
        <ele>138.09</ele>
        <time>2020-12-12T08:06:37Z</time>
      </trkpt>
      <trkpt lat="49.10148" lon="0.75823">
        <ele>137.13</ele>
        <time>2020-12-12T08:06:38Z</time>
      </trkpt>
      <trkpt lat="49.10157" lon="0.75809">
        <ele>136.64</ele>
        <time>2020-12-12T08:06:40Z</time>
      </trkpt>
      <trkpt lat="49.10161" lon="0.75804">
        <ele>136.64</ele>
        <time>2020-12-12T08:06:41Z</time>
      </trkpt>
      <trkpt lat="49.10165" lon="0.758">
        <ele>136.64</ele>
        <time>2020-12-12T08:06:42Z</time>
      </trkpt>
      <trkpt lat="49.10184" lon="0.75783">
        <ele>139.53</ele>
        <time>2020-12-12T08:06:48Z</time>
      </trkpt>
      <trkpt lat="49.1021" lon="0.75756">
        <ele>140.49</ele>
        <time>2020-12-12T08:06:59Z</time>
      </trkpt>
      <trkpt lat="49.10242" lon="0.75723">
        <ele>140.49</ele>
        <time>2020-12-12T08:07:10Z</time>
      </trkpt>
      <trkpt lat="49.10271" lon="0.75693">
        <ele>140.97</ele>
        <time>2020-12-12T08:07:21Z</time>
      </trkpt>
      <trkpt lat="49.10311" lon="0.75653">
        <ele>141.45</ele>
        <time>2020-12-12T08:07:35Z</time>
      </trkpt>
      <trkpt lat="49.1034" lon="0.7562">
        <ele>141.45</ele>
        <time>2020-12-12T08:07:45Z</time>
      </trkpt>
      <trkpt lat="49.10369" lon="0.75592">
        <ele>141.45</ele>
        <time>2020-12-12T08:07:56Z</time>
      </trkpt>
      <trkpt lat="49.10404" lon="0.75559">
        <ele>139.53</ele>
        <time>2020-12-12T08:08:08Z</time>
      </trkpt>
      <trkpt lat="49.10425" lon="0.75541">
        <ele>140.97</ele>
        <time>2020-12-12T08:08:16Z</time>
      </trkpt>
      <trkpt lat="49.1045" lon="0.75517">
        <ele>143.37</ele>
        <time>2020-12-12T08:08:29Z</time>
      </trkpt>
      <trkpt lat="49.10477" lon="0.75486">
        <ele>144.82</ele>
        <time>2020-12-12T08:08:42Z</time>
      </trkpt>
      <trkpt lat="49.10511" lon="0.7545">
        <ele>145.3</ele>
        <time>2020-12-12T08:08:59Z</time>
      </trkpt>
      <trkpt lat="49.10554" lon="0.75408">
        <ele>145.78</ele>
        <time>2020-12-12T08:09:16Z</time>
      </trkpt>
      <trkpt lat="49.10589" lon="0.75394">
        <ele>145.78</ele>
        <time>2020-12-12T08:09:28Z</time>
      </trkpt>
      <trkpt lat="49.10621" lon="0.75415">
        <ele>147.7</ele>
        <time>2020-12-12T08:09:41Z</time>
      </trkpt>
      <trkpt lat="49.10651" lon="0.75452">
        <ele>149.14</ele>
        <time>2020-12-12T08:09:58Z</time>
      </trkpt>
      <trkpt lat="49.10681" lon="0.75505">
        <ele>149.14</ele>
        <time>2020-12-12T08:10:16Z</time>
      </trkpt>
      <trkpt lat="49.10709" lon="0.75546">
        <ele>148.18</ele>
        <time>2020-12-12T08:10:28Z</time>
      </trkpt>
      <trkpt lat="49.10754" lon="0.7561">
        <ele>145.3</ele>
        <time>2020-12-12T08:10:45Z</time>
      </trkpt>
      <trkpt lat="49.10758" lon="0.75614">
        <ele>145.3</ele>
        <time>2020-12-12T08:10:46Z</time>
      </trkpt>
      <trkpt lat="49.10761" lon="0.75616">
        <ele>145.3</ele>
        <time>2020-12-12T08:10:47Z</time>
      </trkpt>
      <trkpt lat="49.10766" lon="0.75616">
        <ele>145.3</ele>
        <time>2020-12-12T08:10:48Z</time>
      </trkpt>
      <trkpt lat="49.10768" lon="0.75615">
        <ele>145.3</ele>
        <time>2020-12-12T08:10:49Z</time>
      </trkpt>
      <trkpt lat="49.10772" lon="0.75613">
        <ele>145.3</ele>
        <time>2020-12-12T08:10:50Z</time>
      </trkpt>
      <trkpt lat="49.10775" lon="0.75611">
        <ele>145.3</ele>
        <time>2020-12-12T08:10:51Z</time>
      </trkpt>
      <trkpt lat="49.10778" lon="0.75609">
        <ele>145.3</ele>
        <time>2020-12-12T08:10:52Z</time>
      </trkpt>
      <trkpt lat="49.10781" lon="0.75606">
        <ele>144.82</ele>
        <time>2020-12-12T08:10:53Z</time>
      </trkpt>
      <trkpt lat="49.10828" lon="0.75573">
        <ele>143.85</ele>
        <time>2020-12-12T08:11:06Z</time>
      </trkpt>
      <trkpt lat="49.10877" lon="0.75537">
        <ele>142.89</ele>
        <time>2020-12-12T08:11:20Z</time>
      </trkpt>
      <trkpt lat="49.10921" lon="0.75507">
        <ele>141.93</ele>
        <time>2020-12-12T08:11:37Z</time>
      </trkpt>
      <trkpt lat="49.1096" lon="0.75479">
        <ele>140.97</ele>
        <time>2020-12-12T08:11:50Z</time>
      </trkpt>
      <trkpt lat="49.11001" lon="0.75452">
        <ele>140.01</ele>
        <time>2020-12-12T08:12:01Z</time>
      </trkpt>
      <trkpt lat="49.11004" lon="0.7545">
        <ele>140.01</ele>
        <time>2020-12-12T08:12:02Z</time>
      </trkpt>
      <trkpt lat="49.11008" lon="0.75448">
        <ele>140.01</ele>
        <time>2020-12-12T08:12:03Z</time>
      </trkpt>
      <trkpt lat="49.11053" lon="0.75428">
        <ele>141.93</ele>
        <time>2020-12-12T08:12:17Z</time>
      </trkpt>
      <trkpt lat="49.11095" lon="0.75409">
        <ele>143.85</ele>
        <time>2020-12-12T08:12:30Z</time>
      </trkpt>
      <trkpt lat="49.11139" lon="0.75392">
        <ele>144.34</ele>
        <time>2020-12-12T08:12:46Z</time>
      </trkpt>
      <trkpt lat="49.1119" lon="0.75377">
        <ele>144.82</ele>
        <time>2020-12-12T08:13:01Z</time>
      </trkpt>
      <trkpt lat="49.11194" lon="0.75376">
        <ele>144.82</ele>
        <time>2020-12-12T08:13:03Z</time>
      </trkpt>
      <trkpt lat="49.11194" lon="0.75375">
        <ele>144.82</ele>
        <time>2020-12-12T08:13:04Z</time>
      </trkpt>
      <trkpt lat="49.11188" lon="0.75377">
        <ele>144.82</ele>
        <time>2020-12-12T08:13:08Z</time>
      </trkpt>
      <trkpt lat="49.11187" lon="0.75379">
        <ele>144.82</ele>
        <time>2020-12-12T08:13:09Z</time>
      </trkpt>
      <trkpt lat="49.11186" lon="0.75382">
        <ele>144.82</ele>
        <time>2020-12-12T08:13:10Z</time>
      </trkpt>
      <trkpt lat="49.11188" lon="0.75392">
        <ele>144.82</ele>
        <time>2020-12-12T08:13:13Z</time>
      </trkpt>
      <trkpt lat="49.11199" lon="0.75455">
        <ele>144.82</ele>
        <time>2020-12-12T08:13:28Z</time>
      </trkpt>
      <trkpt lat="49.11202" lon="0.75513">
        <ele>144.82</ele>
        <time>2020-12-12T08:13:38Z</time>
      </trkpt>
      <trkpt lat="49.11201" lon="0.75587">
        <ele>143.37</ele>
        <time>2020-12-12T08:13:51Z</time>
      </trkpt>
      <trkpt lat="49.11209" lon="0.75669">
        <ele>142.89</ele>
        <time>2020-12-12T08:14:06Z</time>
      </trkpt>
      <trkpt lat="49.11224" lon="0.75749">
        <ele>142.89</ele>
        <time>2020-12-12T08:14:22Z</time>
      </trkpt>
      <trkpt lat="49.11241" lon="0.75838">
        <ele>142.89</ele>
        <time>2020-12-12T08:14:42Z</time>
      </trkpt>
      <trkpt lat="49.11262" lon="0.75907">
        <ele>142.89</ele>
        <time>2020-12-12T08:14:59Z</time>
      </trkpt>
      <trkpt lat="49.1129" lon="0.75982">
        <ele>142.41</ele>
        <time>2020-12-12T08:15:13Z</time>
      </trkpt>
      <trkpt lat="49.11299" lon="0.76014">
        <ele>142.41</ele>
        <time>2020-12-12T08:15:18Z</time>
      </trkpt>
      <trkpt lat="49.11301" lon="0.7602">
        <ele>142.41</ele>
        <time>2020-12-12T08:15:19Z</time>
      </trkpt>
      <trkpt lat="49.11327" lon="0.7615">
        <ele>142.41</ele>
        <time>2020-12-12T08:15:38Z</time>
      </trkpt>
      <trkpt lat="49.11352" lon="0.76261">
        <ele>144.34</ele>
        <time>2020-12-12T08:15:54Z</time>
      </trkpt>
      <trkpt lat="49.11379" lon="0.76349">
        <ele>144.34</ele>
        <time>2020-12-12T08:16:08Z</time>
      </trkpt>
      <trkpt lat="49.11387" lon="0.76396">
        <ele>144.34</ele>
        <time>2020-12-12T08:16:15Z</time>
      </trkpt>
      <trkpt lat="49.11388" lon="0.76401">
        <ele>144.34</ele>
        <time>2020-12-12T08:16:16Z</time>
      </trkpt>
      <trkpt lat="49.1139" lon="0.76404">
        <ele>144.34</ele>
        <time>2020-12-12T08:16:17Z</time>
      </trkpt>
      <trkpt lat="49.11394" lon="0.76403">
        <ele>144.82</ele>
        <time>2020-12-12T08:16:19Z</time>
      </trkpt>
      <trkpt lat="49.11397" lon="0.76398">
        <ele>144.82</ele>
        <time>2020-12-12T08:16:20Z</time>
      </trkpt>
      <trkpt lat="49.11401" lon="0.76394">
        <ele>144.82</ele>
        <time>2020-12-12T08:16:21Z</time>
      </trkpt>
      <trkpt lat="49.11404" lon="0.76392">
        <ele>144.82</ele>
        <time>2020-12-12T08:16:22Z</time>
      </trkpt>
      <trkpt lat="49.11408" lon="0.7639">
        <ele>144.82</ele>
        <time>2020-12-12T08:16:23Z</time>
      </trkpt>
      <trkpt lat="49.11411" lon="0.76388">
        <ele>144.82</ele>
        <time>2020-12-12T08:16:24Z</time>
      </trkpt>
      <trkpt lat="49.11442" lon="0.76385">
        <ele>144.82</ele>
        <time>2020-12-12T08:16:35Z</time>
      </trkpt>
      <trkpt lat="49.11443" lon="0.76385">
        <ele>144.82</ele>
        <time>2020-12-12T08:16:36Z</time>
      </trkpt>
      <trkpt lat="49.11445" lon="0.76385">
        <ele>144.82</ele>
        <time>2020-12-12T08:16:37Z</time>
      </trkpt>
      <trkpt lat="49.11446" lon="0.76385">
        <ele>144.82</ele>
        <time>2020-12-12T08:16:38Z</time>
      </trkpt>
      <trkpt lat="49.11448" lon="0.76386">
        <ele>144.82</ele>
        <time>2020-12-12T08:16:39Z</time>
      </trkpt>
      <trkpt lat="49.1145" lon="0.76387">
        <ele>144.82</ele>
        <time>2020-12-12T08:16:40Z</time>
      </trkpt>
      <trkpt lat="49.11451" lon="0.76389">
        <ele>144.82</ele>
        <time>2020-12-12T08:16:41Z</time>
      </trkpt>
      <trkpt lat="49.11453" lon="0.7639">
        <ele>144.82</ele>
        <time>2020-12-12T08:16:42Z</time>
      </trkpt>
      <trkpt lat="49.11454" lon="0.76388">
        <ele>144.82</ele>
        <time>2020-12-12T08:16:43Z</time>
      </trkpt>
      <trkpt lat="49.11452" lon="0.76385">
        <ele>144.82</ele>
        <time>2020-12-12T08:16:45Z</time>
      </trkpt>
      <trkpt lat="49.1145" lon="0.76384">
        <ele>144.82</ele>
        <time>2020-12-12T08:16:46Z</time>
      </trkpt>
      <trkpt lat="49.11448" lon="0.76384">
        <ele>144.82</ele>
        <time>2020-12-12T08:16:47Z</time>
      </trkpt>
      <trkpt lat="49.11444" lon="0.76384">
        <ele>144.82</ele>
        <time>2020-12-12T08:16:49Z</time>
      </trkpt>
      <trkpt lat="49.11442" lon="0.76385">
        <ele>144.82</ele>
        <time>2020-12-12T08:16:50Z</time>
      </trkpt>
      <trkpt lat="49.11441" lon="0.76388">
        <ele>144.82</ele>
        <time>2020-12-12T08:16:51Z</time>
      </trkpt>
      <trkpt lat="49.1144" lon="0.76389">
        <ele>144.82</ele>
        <time>2020-12-12T08:16:52Z</time>
      </trkpt>
      <trkpt lat="49.11442" lon="0.76396">
        <ele>144.82</ele>
        <time>2020-12-12T08:17:05Z</time>
      </trkpt>
      <trkpt lat="49.11442" lon="0.76397">
        <ele>144.82</ele>
        <time>2020-12-12T08:17:18Z</time>
      </trkpt>
      <trkpt lat="49.11443" lon="0.76398">
        <ele>144.82</ele>
        <time>2020-12-12T08:17:19Z</time>
      </trkpt>
      <trkpt lat="49.11444" lon="0.764">
        <ele>144.82</ele>
        <time>2020-12-12T08:17:20Z</time>
      </trkpt>
      <trkpt lat="49.11445" lon="0.76402">
        <ele>144.82</ele>
        <time>2020-12-12T08:17:21Z</time>
      </trkpt>
      <trkpt lat="49.11445" lon="0.76404">
        <ele>144.82</ele>
        <time>2020-12-12T08:17:22Z</time>
      </trkpt>
      <trkpt lat="49.11445" lon="0.76407">
        <ele>144.82</ele>
        <time>2020-12-12T08:17:23Z</time>
      </trkpt>
      <trkpt lat="49.11444" lon="0.7641">
        <ele>145.3</ele>
        <time>2020-12-12T08:17:36Z</time>
      </trkpt>
      <trkpt lat="49.11445" lon="0.76411">
        <ele>145.3</ele>
        <time>2020-12-12T08:18:04Z</time>
      </trkpt>
      <trkpt lat="49.11443" lon="0.76411">
        <ele>145.3</ele>
        <time>2020-12-12T08:18:37Z</time>
      </trkpt>
      <trkpt lat="49.11443" lon="0.76411">
        <ele>145.3</ele>
        <time>2020-12-12T08:19:03Z</time>
      </trkpt>
      <trkpt lat="49.11442" lon="0.76409">
        <ele>145.3</ele>
        <time>2020-12-12T08:19:26Z</time>
      </trkpt>
      <trkpt lat="49.11442" lon="0.76417">
        <ele>145.3</ele>
        <time>2020-12-12T08:19:38Z</time>
      </trkpt>
      <trkpt lat="49.11438" lon="0.76396">
        <ele>145.3</ele>
        <time>2020-12-12T08:19:45Z</time>
      </trkpt>
      <trkpt lat="49.11437" lon="0.7639">
        <ele>145.3</ele>
        <time>2020-12-12T08:19:47Z</time>
      </trkpt>
      <trkpt lat="49.11435" lon="0.76386">
        <ele>145.3</ele>
        <time>2020-12-12T08:19:48Z</time>
      </trkpt>
      <trkpt lat="49.11432" lon="0.76384">
        <ele>144.34</ele>
        <time>2020-12-12T08:19:49Z</time>
      </trkpt>
      <trkpt lat="49.11428" lon="0.76384">
        <ele>144.34</ele>
        <time>2020-12-12T08:19:50Z</time>
      </trkpt>
      <trkpt lat="49.11425" lon="0.76385">
        <ele>144.34</ele>
        <time>2020-12-12T08:19:51Z</time>
      </trkpt>
      <trkpt lat="49.11416" lon="0.76387">
        <ele>144.34</ele>
        <time>2020-12-12T08:19:53Z</time>
      </trkpt>
      <trkpt lat="49.11391" lon="0.76402">
        <ele>143.37</ele>
        <time>2020-12-12T08:20:00Z</time>
      </trkpt>
      <trkpt lat="49.11388" lon="0.76401">
        <ele>143.37</ele>
        <time>2020-12-12T08:20:01Z</time>
      </trkpt>
      <trkpt lat="49.11386" lon="0.76399">
        <ele>143.37</ele>
        <time>2020-12-12T08:20:02Z</time>
      </trkpt>
      <trkpt lat="49.11386" lon="0.76395">
        <ele>143.37</ele>
        <time>2020-12-12T08:20:03Z</time>
      </trkpt>
      <trkpt lat="49.11385" lon="0.7639">
        <ele>143.37</ele>
        <time>2020-12-12T08:20:04Z</time>
      </trkpt>
      <trkpt lat="49.11384" lon="0.76384">
        <ele>143.37</ele>
        <time>2020-12-12T08:20:05Z</time>
      </trkpt>
      <trkpt lat="49.11371" lon="0.76318">
        <ele>143.37</ele>
        <time>2020-12-12T08:20:14Z</time>
      </trkpt>
      <trkpt lat="49.11368" lon="0.7631">
        <ele>143.37</ele>
        <time>2020-12-12T08:20:15Z</time>
      </trkpt>
      <trkpt lat="49.11333" lon="0.76186">
        <ele>142.89</ele>
        <time>2020-12-12T08:20:30Z</time>
      </trkpt>
      <trkpt lat="49.11317" lon="0.76114">
        <ele>142.41</ele>
        <time>2020-12-12T08:20:39Z</time>
      </trkpt>
      <trkpt lat="49.11316" lon="0.76105">
        <ele>142.41</ele>
        <time>2020-12-12T08:20:40Z</time>
      </trkpt>
      <trkpt lat="49.11312" lon="0.76081">
        <ele>142.41</ele>
        <time>2020-12-12T08:20:43Z</time>
      </trkpt>
      <trkpt lat="49.11311" lon="0.76075">
        <ele>142.41</ele>
        <time>2020-12-12T08:20:44Z</time>
      </trkpt>
      <trkpt lat="49.11312" lon="0.7607">
        <ele>142.41</ele>
        <time>2020-12-12T08:20:45Z</time>
      </trkpt>
      <trkpt lat="49.11313" lon="0.76068">
        <ele>142.41</ele>
        <time>2020-12-12T08:20:46Z</time>
      </trkpt>
      <trkpt lat="49.11315" lon="0.76065">
        <ele>142.41</ele>
        <time>2020-12-12T08:20:47Z</time>
      </trkpt>
      <trkpt lat="49.11316" lon="0.76062">
        <ele>142.41</ele>
        <time>2020-12-12T08:20:48Z</time>
      </trkpt>
      <trkpt lat="49.11315" lon="0.76057">
        <ele>142.41</ele>
        <time>2020-12-12T08:20:49Z</time>
      </trkpt>
      <trkpt lat="49.11312" lon="0.76051">
        <ele>142.41</ele>
        <time>2020-12-12T08:20:50Z</time>
      </trkpt>
      <trkpt lat="49.1131" lon="0.76046">
        <ele>141.93</ele>
        <time>2020-12-12T08:20:51Z</time>
      </trkpt>
      <trkpt lat="49.11308" lon="0.7604">
        <ele>141.93</ele>
        <time>2020-12-12T08:20:52Z</time>
      </trkpt>
      <trkpt lat="49.11306" lon="0.76032">
        <ele>141.93</ele>
        <time>2020-12-12T08:20:53Z</time>
      </trkpt>
      <trkpt lat="49.11304" lon="0.76025">
        <ele>141.93</ele>
        <time>2020-12-12T08:20:54Z</time>
      </trkpt>
      <trkpt lat="49.11302" lon="0.76017">
        <ele>141.93</ele>
        <time>2020-12-12T08:20:55Z</time>
      </trkpt>
      <trkpt lat="49.113" lon="0.7601">
        <ele>141.93</ele>
        <time>2020-12-12T08:20:56Z</time>
      </trkpt>
      <trkpt lat="49.11271" lon="0.75917">
        <ele>141.45</ele>
        <time>2020-12-12T08:21:09Z</time>
      </trkpt>
      <trkpt lat="49.11268" lon="0.75911">
        <ele>141.45</ele>
        <time>2020-12-12T08:21:10Z</time>
      </trkpt>
      <trkpt lat="49.11265" lon="0.75905">
        <ele>141.45</ele>
        <time>2020-12-12T08:21:11Z</time>
      </trkpt>
      <trkpt lat="49.11261" lon="0.759">
        <ele>141.45</ele>
        <time>2020-12-12T08:21:12Z</time>
      </trkpt>
      <trkpt lat="49.11256" lon="0.75897">
        <ele>141.45</ele>
        <time>2020-12-12T08:21:13Z</time>
      </trkpt>
      <trkpt lat="49.11251" lon="0.75895">
        <ele>141.45</ele>
        <time>2020-12-12T08:21:14Z</time>
      </trkpt>
      <trkpt lat="49.11245" lon="0.75893">
        <ele>141.45</ele>
        <time>2020-12-12T08:21:15Z</time>
      </trkpt>
      <trkpt lat="49.11241" lon="0.75892">
        <ele>141.45</ele>
        <time>2020-12-12T08:21:16Z</time>
      </trkpt>
      <trkpt lat="49.11174" lon="0.75874">
        <ele>142.89</ele>
        <time>2020-12-12T08:21:29Z</time>
      </trkpt>
      <trkpt lat="49.11076" lon="0.75843">
        <ele>143.85</ele>
        <time>2020-12-12T08:21:49Z</time>
      </trkpt>
      <trkpt lat="49.10999" lon="0.75812">
        <ele>144.82</ele>
        <time>2020-12-12T08:22:07Z</time>
      </trkpt>
      <trkpt lat="49.10967" lon="0.75797">
        <ele>144.82</ele>
        <time>2020-12-12T08:22:15Z</time>
      </trkpt>
      <trkpt lat="49.10962" lon="0.75798">
        <ele>144.82</ele>
        <time>2020-12-12T08:22:16Z</time>
      </trkpt>
      <trkpt lat="49.10957" lon="0.75801">
        <ele>144.82</ele>
        <time>2020-12-12T08:22:17Z</time>
      </trkpt>
      <trkpt lat="49.10953" lon="0.75804">
        <ele>144.82</ele>
        <time>2020-12-12T08:22:18Z</time>
      </trkpt>
      <trkpt lat="49.10949" lon="0.75808">
        <ele>144.82</ele>
        <time>2020-12-12T08:22:19Z</time>
      </trkpt>
      <trkpt lat="49.10892" lon="0.75871">
        <ele>144.82</ele>
        <time>2020-12-12T08:22:33Z</time>
      </trkpt>
      <trkpt lat="49.10822" lon="0.75956">
        <ele>146.26</ele>
        <time>2020-12-12T08:22:51Z</time>
      </trkpt>
      <trkpt lat="49.10758" lon="0.76055">
        <ele>146.74</ele>
        <time>2020-12-12T08:23:08Z</time>
      </trkpt>
      <trkpt lat="49.10689" lon="0.76132">
        <ele>146.74</ele>
        <time>2020-12-12T08:23:23Z</time>
      </trkpt>
      <trkpt lat="49.10608" lon="0.76209">
        <ele>146.74</ele>
        <time>2020-12-12T08:23:40Z</time>
      </trkpt>
      <trkpt lat="49.10605" lon="0.76213">
        <ele>146.74</ele>
        <time>2020-12-12T08:23:41Z</time>
      </trkpt>
      <trkpt lat="49.10598" lon="0.76222">
        <ele>146.74</ele>
        <time>2020-12-12T08:23:43Z</time>
      </trkpt>
      <trkpt lat="49.10594" lon="0.76225">
        <ele>146.74</ele>
        <time>2020-12-12T08:23:44Z</time>
      </trkpt>
      <trkpt lat="49.1059" lon="0.76224">
        <ele>146.74</ele>
        <time>2020-12-12T08:23:45Z</time>
      </trkpt>
      <trkpt lat="49.10587" lon="0.76221">
        <ele>146.74</ele>
        <time>2020-12-12T08:23:46Z</time>
      </trkpt>
      <trkpt lat="49.10582" lon="0.76211">
        <ele>146.74</ele>
        <time>2020-12-12T08:23:48Z</time>
      </trkpt>
      <trkpt lat="49.10575" lon="0.76194">
        <ele>144.82</ele>
        <time>2020-12-12T08:23:51Z</time>
      </trkpt>
      <trkpt lat="49.10567" lon="0.76177">
        <ele>144.82</ele>
        <time>2020-12-12T08:23:54Z</time>
      </trkpt>
      <trkpt lat="49.10558" lon="0.76154">
        <ele>144.82</ele>
        <time>2020-12-12T08:23:58Z</time>
      </trkpt>
      <trkpt lat="49.10517" lon="0.76055">
        <ele>143.85</ele>
        <time>2020-12-12T08:24:16Z</time>
      </trkpt>
      <trkpt lat="49.10496" lon="0.76014">
        <ele>143.85</ele>
        <time>2020-12-12T08:24:27Z</time>
      </trkpt>
      <trkpt lat="49.10472" lon="0.75977">
        <ele>143.85</ele>
        <time>2020-12-12T08:24:39Z</time>
      </trkpt>
      <trkpt lat="49.10442" lon="0.75928">
        <ele>144.82</ele>
        <time>2020-12-12T08:24:56Z</time>
      </trkpt>
      <trkpt lat="49.10405" lon="0.75958">
        <ele>144.82</ele>
        <time>2020-12-12T08:25:09Z</time>
      </trkpt>
      <trkpt lat="49.10351" lon="0.76009">
        <ele>143.85</ele>
        <time>2020-12-12T08:25:24Z</time>
      </trkpt>
      <trkpt lat="49.10297" lon="0.76061">
        <ele>142.89</ele>
        <time>2020-12-12T08:25:40Z</time>
      </trkpt>
      <trkpt lat="49.10253" lon="0.76101">
        <ele>144.34</ele>
        <time>2020-12-12T08:25:57Z</time>
      </trkpt>
      <trkpt lat="49.10204" lon="0.76147">
        <ele>144.82</ele>
        <time>2020-12-12T08:26:16Z</time>
      </trkpt>
      <trkpt lat="49.1016" lon="0.76174">
        <ele>145.3</ele>
        <time>2020-12-12T08:26:32Z</time>
      </trkpt>
      <trkpt lat="49.10128" lon="0.76197">
        <ele>145.78</ele>
        <time>2020-12-12T08:26:43Z</time>
      </trkpt>
      <trkpt lat="49.10075" lon="0.76243">
        <ele>145.78</ele>
        <time>2020-12-12T08:26:57Z</time>
      </trkpt>
      <trkpt lat="49.10067" lon="0.7625">
        <ele>145.78</ele>
        <time>2020-12-12T08:26:59Z</time>
      </trkpt>
      <trkpt lat="49.10063" lon="0.76253">
        <ele>145.78</ele>
        <time>2020-12-12T08:27:00Z</time>
      </trkpt>
      <trkpt lat="49.10027" lon="0.76285">
        <ele>145.78</ele>
        <time>2020-12-12T08:27:11Z</time>
      </trkpt>
      <trkpt lat="49.0999" lon="0.76314">
        <ele>145.78</ele>
        <time>2020-12-12T08:27:24Z</time>
      </trkpt>
      <trkpt lat="49.09981" lon="0.76324">
        <ele>146.26</ele>
        <time>2020-12-12T08:27:37Z</time>
      </trkpt>
      <trkpt lat="49.0997" lon="0.76334">
        <ele>146.26</ele>
        <time>2020-12-12T08:28:01Z</time>
      </trkpt>
      <trkpt lat="49.09953" lon="0.76352">
        <ele>146.26</ele>
        <time>2020-12-12T08:28:07Z</time>
      </trkpt>
      <trkpt lat="49.0995" lon="0.76356">
        <ele>146.26</ele>
        <time>2020-12-12T08:28:08Z</time>
      </trkpt>
      <trkpt lat="49.09897" lon="0.7642">
        <ele>145.3</ele>
        <time>2020-12-12T08:28:22Z</time>
      </trkpt>
      <trkpt lat="49.09857" lon="0.76469">
        <ele>145.3</ele>
        <time>2020-12-12T08:28:33Z</time>
      </trkpt>
      <trkpt lat="49.0984" lon="0.76491">
        <ele>145.3</ele>
        <time>2020-12-12T08:28:38Z</time>
      </trkpt>
      <trkpt lat="49.09789" lon="0.7655">
        <ele>145.3</ele>
        <time>2020-12-12T08:28:50Z</time>
      </trkpt>
      <trkpt lat="49.09742" lon="0.76602">
        <ele>145.3</ele>
        <time>2020-12-12T08:29:02Z</time>
      </trkpt>
      <trkpt lat="49.09692" lon="0.76651">
        <ele>145.3</ele>
        <time>2020-12-12T08:29:14Z</time>
      </trkpt>
      <trkpt lat="49.09651" lon="0.76683">
        <ele>147.7</ele>
        <time>2020-12-12T08:29:27Z</time>
      </trkpt>
      <trkpt lat="49.09601" lon="0.76727">
        <ele>149.14</ele>
        <time>2020-12-12T08:29:44Z</time>
      </trkpt>
      <trkpt lat="49.09541" lon="0.76767">
        <ele>149.14</ele>
        <time>2020-12-12T08:30:00Z</time>
      </trkpt>
      <trkpt lat="49.09533" lon="0.76773">
        <ele>147.7</ele>
        <time>2020-12-12T08:30:02Z</time>
      </trkpt>
      <trkpt lat="49.09476" lon="0.76812">
        <ele>144.82</ele>
        <time>2020-12-12T08:30:16Z</time>
      </trkpt>
      <trkpt lat="49.09472" lon="0.76816">
        <ele>144.34</ele>
        <time>2020-12-12T08:30:17Z</time>
      </trkpt>
      <trkpt lat="49.09468" lon="0.76821">
        <ele>144.34</ele>
        <time>2020-12-12T08:30:18Z</time>
      </trkpt>
      <trkpt lat="49.09459" lon="0.76828">
        <ele>143.85</ele>
        <time>2020-12-12T08:30:20Z</time>
      </trkpt>
      <trkpt lat="49.09412" lon="0.76877">
        <ele>142.41</ele>
        <time>2020-12-12T08:30:33Z</time>
      </trkpt>
      <trkpt lat="49.09383" lon="0.76936">
        <ele>139.05</ele>
        <time>2020-12-12T08:30:42Z</time>
      </trkpt>
      <trkpt lat="49.0937" lon="0.76958">
        <ele>138.09</ele>
        <time>2020-12-12T08:30:46Z</time>
      </trkpt>
      <trkpt lat="49.09369" lon="0.76964">
        <ele>137.61</ele>
        <time>2020-12-12T08:30:47Z</time>
      </trkpt>
      <trkpt lat="49.09368" lon="0.76973">
        <ele>137.61</ele>
        <time>2020-12-12T08:30:48Z</time>
      </trkpt>
      <trkpt lat="49.0937" lon="0.76981">
        <ele>136.64</ele>
        <time>2020-12-12T08:30:49Z</time>
      </trkpt>
      <trkpt lat="49.09372" lon="0.76989">
        <ele>136.16</ele>
        <time>2020-12-12T08:30:50Z</time>
      </trkpt>
      <trkpt lat="49.09379" lon="0.77013">
        <ele>134.24</ele>
        <time>2020-12-12T08:30:53Z</time>
      </trkpt>
      <trkpt lat="49.0938" lon="0.77019">
        <ele>134.24</ele>
        <time>2020-12-12T08:30:54Z</time>
      </trkpt>
      <trkpt lat="49.0938" lon="0.77024">
        <ele>133.28</ele>
        <time>2020-12-12T08:30:55Z</time>
      </trkpt>
      <trkpt lat="49.09377" lon="0.77028">
        <ele>133.28</ele>
        <time>2020-12-12T08:30:56Z</time>
      </trkpt>
      <trkpt lat="49.09375" lon="0.77031">
        <ele>132.8</ele>
        <time>2020-12-12T08:30:57Z</time>
      </trkpt>
      <trkpt lat="49.09371" lon="0.77036">
        <ele>132.32</ele>
        <time>2020-12-12T08:30:58Z</time>
      </trkpt>
      <trkpt lat="49.09353" lon="0.77039">
        <ele>133.76</ele>
        <time>2020-12-12T08:31:05Z</time>
      </trkpt>
      <trkpt lat="49.09309" lon="0.77026">
        <ele>137.61</ele>
        <time>2020-12-12T08:31:23Z</time>
      </trkpt>
      <trkpt lat="49.09277" lon="0.77047">
        <ele>140.49</ele>
        <time>2020-12-12T08:31:38Z</time>
      </trkpt>
      <trkpt lat="49.09248" lon="0.7708">
        <ele>141.93</ele>
        <time>2020-12-12T08:31:53Z</time>
      </trkpt>
      <trkpt lat="49.09213" lon="0.77128">
        <ele>142.89</ele>
        <time>2020-12-12T08:32:07Z</time>
      </trkpt>
      <trkpt lat="49.09182" lon="0.77149">
        <ele>143.37</ele>
        <time>2020-12-12T08:32:17Z</time>
      </trkpt>
      <trkpt lat="49.09145" lon="0.7714">
        <ele>143.85</ele>
        <time>2020-12-12T08:32:30Z</time>
      </trkpt>
      <trkpt lat="49.09099" lon="0.77131">
        <ele>143.85</ele>
        <time>2020-12-12T08:32:43Z</time>
      </trkpt>
      <trkpt lat="49.09067" lon="0.77124">
        <ele>141.93</ele>
        <time>2020-12-12T08:32:50Z</time>
      </trkpt>
      <trkpt lat="49.09062" lon="0.77122">
        <ele>141.93</ele>
        <time>2020-12-12T08:32:51Z</time>
      </trkpt>
      <trkpt lat="49.08993" lon="0.77108">
        <ele>140.97</ele>
        <time>2020-12-12T08:33:04Z</time>
      </trkpt>
      <trkpt lat="49.08934" lon="0.77097">
        <ele>140.01</ele>
        <time>2020-12-12T08:33:15Z</time>
      </trkpt>
      <trkpt lat="49.08866" lon="0.77082">
        <ele>140.49</ele>
        <time>2020-12-12T08:33:29Z</time>
      </trkpt>
      <trkpt lat="49.08828" lon="0.77075">
        <ele>140.01</ele>
        <time>2020-12-12T08:33:38Z</time>
      </trkpt>
      <trkpt lat="49.08824" lon="0.77074">
        <ele>140.01</ele>
        <time>2020-12-12T08:33:39Z</time>
      </trkpt>
      <trkpt lat="49.08759" lon="0.7706">
        <ele>139.53</ele>
        <time>2020-12-12T08:33:56Z</time>
      </trkpt>
      <trkpt lat="49.08721" lon="0.77079">
        <ele>138.09</ele>
        <time>2020-12-12T08:34:07Z</time>
      </trkpt>
      <trkpt lat="49.08699" lon="0.77099">
        <ele>136.16</ele>
        <time>2020-12-12T08:34:13Z</time>
      </trkpt>
      <trkpt lat="49.08684" lon="0.77122">
        <ele>133.76</ele>
        <time>2020-12-12T08:34:18Z</time>
      </trkpt>
      <trkpt lat="49.08681" lon="0.77127">
        <ele>133.28</ele>
        <time>2020-12-12T08:34:19Z</time>
      </trkpt>
      <trkpt lat="49.0866" lon="0.77155">
        <ele>130.4</ele>
        <time>2020-12-12T08:34:24Z</time>
      </trkpt>
      <trkpt lat="49.08636" lon="0.77185">
        <ele>127.03</ele>
        <time>2020-12-12T08:34:29Z</time>
      </trkpt>
      <trkpt lat="49.08631" lon="0.77191">
        <ele>126.55</ele>
        <time>2020-12-12T08:34:30Z</time>
      </trkpt>
      <trkpt lat="49.08626" lon="0.77198">
        <ele>126.07</ele>
        <time>2020-12-12T08:34:31Z</time>
      </trkpt>
      <trkpt lat="49.08621" lon="0.77204">
        <ele>125.11</ele>
        <time>2020-12-12T08:34:32Z</time>
      </trkpt>
      <trkpt lat="49.08609" lon="0.77215">
        <ele>124.15</ele>
        <time>2020-12-12T08:34:34Z</time>
      </trkpt>
      <trkpt lat="49.08604" lon="0.77221">
        <ele>123.67</ele>
        <time>2020-12-12T08:34:35Z</time>
      </trkpt>
      <trkpt lat="49.086" lon="0.77227">
        <ele>122.71</ele>
        <time>2020-12-12T08:34:36Z</time>
      </trkpt>
      <trkpt lat="49.08596" lon="0.77233">
        <ele>122.22</ele>
        <time>2020-12-12T08:34:37Z</time>
      </trkpt>
      <trkpt lat="49.08584" lon="0.77249">
        <ele>120.3</ele>
        <time>2020-12-12T08:34:40Z</time>
      </trkpt>
      <trkpt lat="49.08571" lon="0.77262">
        <ele>118.86</ele>
        <time>2020-12-12T08:34:43Z</time>
      </trkpt>
      <trkpt lat="49.08549" lon="0.77285">
        <ele>115.5</ele>
        <time>2020-12-12T08:34:48Z</time>
      </trkpt>
      <trkpt lat="49.08528" lon="0.77306">
        <ele>113.09</ele>
        <time>2020-12-12T08:34:52Z</time>
      </trkpt>
      <trkpt lat="49.08522" lon="0.7731">
        <ele>112.61</ele>
        <time>2020-12-12T08:34:53Z</time>
      </trkpt>
      <trkpt lat="49.08493" lon="0.77336">
        <ele>109.25</ele>
        <time>2020-12-12T08:34:58Z</time>
      </trkpt>
      <trkpt lat="49.0848" lon="0.77346">
        <ele>107.81</ele>
        <time>2020-12-12T08:35:00Z</time>
      </trkpt>
      <trkpt lat="49.0846" lon="0.77364">
        <ele>106.36</ele>
        <time>2020-12-12T08:35:03Z</time>
      </trkpt>
      <trkpt lat="49.08429" lon="0.77394">
        <ele>104.44</ele>
        <time>2020-12-12T08:35:08Z</time>
      </trkpt>
      <trkpt lat="49.08423" lon="0.774">
        <ele>104.92</ele>
        <time>2020-12-12T08:35:09Z</time>
      </trkpt>
      <trkpt lat="49.084" lon="0.77425">
        <ele>104.92</ele>
        <time>2020-12-12T08:35:13Z</time>
      </trkpt>
      <trkpt lat="49.08387" lon="0.77437">
        <ele>104.92</ele>
        <time>2020-12-12T08:35:15Z</time>
      </trkpt>
      <trkpt lat="49.08377" lon="0.77447">
        <ele>104.92</ele>
        <time>2020-12-12T08:35:17Z</time>
      </trkpt>
      <trkpt lat="49.0837" lon="0.77452">
        <ele>103.96</ele>
        <time>2020-12-12T08:35:18Z</time>
      </trkpt>
      <trkpt lat="49.08363" lon="0.77456">
        <ele>103.96</ele>
        <time>2020-12-12T08:35:19Z</time>
      </trkpt>
      <trkpt lat="49.08357" lon="0.7746">
        <ele>103.48</ele>
        <time>2020-12-12T08:35:20Z</time>
      </trkpt>
      <trkpt lat="49.08351" lon="0.77466">
        <ele>103</ele>
        <time>2020-12-12T08:35:21Z</time>
      </trkpt>
      <trkpt lat="49.08346" lon="0.77472">
        <ele>103</ele>
        <time>2020-12-12T08:35:22Z</time>
      </trkpt>
      <trkpt lat="49.08318" lon="0.77509">
        <ele>100.11</ele>
        <time>2020-12-12T08:35:29Z</time>
      </trkpt>
      <trkpt lat="49.08308" lon="0.77523">
        <ele>98.67</ele>
        <time>2020-12-12T08:35:32Z</time>
      </trkpt>
      <trkpt lat="49.083" lon="0.77532">
        <ele>96.75</ele>
        <time>2020-12-12T08:35:34Z</time>
      </trkpt>
      <trkpt lat="49.08296" lon="0.77535">
        <ele>96.27</ele>
        <time>2020-12-12T08:35:35Z</time>
      </trkpt>
      <trkpt lat="49.08291" lon="0.77539">
        <ele>95.31</ele>
        <time>2020-12-12T08:35:36Z</time>
      </trkpt>
      <trkpt lat="49.08286" lon="0.77543">
        <ele>94.83</ele>
        <time>2020-12-12T08:35:37Z</time>
      </trkpt>
      <trkpt lat="49.08282" lon="0.77548">
        <ele>93.87</ele>
        <time>2020-12-12T08:35:38Z</time>
      </trkpt>
      <trkpt lat="49.08279" lon="0.77553">
        <ele>93.39</ele>
        <time>2020-12-12T08:35:39Z</time>
      </trkpt>
      <trkpt lat="49.08276" lon="0.77558">
        <ele>92.9</ele>
        <time>2020-12-12T08:35:40Z</time>
      </trkpt>
      <trkpt lat="49.08273" lon="0.77564">
        <ele>92.42</ele>
        <time>2020-12-12T08:35:41Z</time>
      </trkpt>
      <trkpt lat="49.0827" lon="0.77568">
        <ele>91.46</ele>
        <time>2020-12-12T08:35:42Z</time>
      </trkpt>
      <trkpt lat="49.08267" lon="0.77573">
        <ele>91.46</ele>
        <time>2020-12-12T08:35:43Z</time>
      </trkpt>
      <trkpt lat="49.08264" lon="0.77579">
        <ele>90.5</ele>
        <time>2020-12-12T08:35:44Z</time>
      </trkpt>
      <trkpt lat="49.0826" lon="0.77585">
        <ele>89.54</ele>
        <time>2020-12-12T08:35:45Z</time>
      </trkpt>
      <trkpt lat="49.08248" lon="0.776">
        <ele>88.58</ele>
        <time>2020-12-12T08:35:48Z</time>
      </trkpt>
      <trkpt lat="49.08241" lon="0.7761">
        <ele>88.1</ele>
        <time>2020-12-12T08:35:50Z</time>
      </trkpt>
      <trkpt lat="49.08229" lon="0.77622">
        <ele>87.62</ele>
        <time>2020-12-12T08:35:53Z</time>
      </trkpt>
      <trkpt lat="49.08206" lon="0.77663">
        <ele>87.62</ele>
        <time>2020-12-12T08:36:00Z</time>
      </trkpt>
      <trkpt lat="49.08153" lon="0.77751">
        <ele>86.66</ele>
        <time>2020-12-12T08:36:14Z</time>
      </trkpt>
      <trkpt lat="49.08151" lon="0.77756">
        <ele>86.66</ele>
        <time>2020-12-12T08:36:15Z</time>
      </trkpt>
      <trkpt lat="49.08145" lon="0.77786">
        <ele>86.66</ele>
        <time>2020-12-12T08:36:20Z</time>
      </trkpt>
      <trkpt lat="49.08145" lon="0.77793">
        <ele>86.66</ele>
        <time>2020-12-12T08:36:21Z</time>
      </trkpt>
      <trkpt lat="49.08144" lon="0.77806">
        <ele>86.66</ele>
        <time>2020-12-12T08:36:23Z</time>
      </trkpt>
      <trkpt lat="49.08143" lon="0.77813">
        <ele>86.66</ele>
        <time>2020-12-12T08:36:24Z</time>
      </trkpt>
      <trkpt lat="49.08142" lon="0.7782">
        <ele>86.66</ele>
        <time>2020-12-12T08:36:25Z</time>
      </trkpt>
      <trkpt lat="49.0814" lon="0.77826">
        <ele>86.66</ele>
        <time>2020-12-12T08:36:26Z</time>
      </trkpt>
      <trkpt lat="49.08137" lon="0.77833">
        <ele>86.66</ele>
        <time>2020-12-12T08:36:27Z</time>
      </trkpt>
      <trkpt lat="49.08134" lon="0.77839">
        <ele>86.66</ele>
        <time>2020-12-12T08:36:28Z</time>
      </trkpt>
      <trkpt lat="49.08131" lon="0.77844">
        <ele>86.66</ele>
        <time>2020-12-12T08:36:29Z</time>
      </trkpt>
      <trkpt lat="49.08127" lon="0.7785">
        <ele>86.66</ele>
        <time>2020-12-12T08:36:30Z</time>
      </trkpt>
      <trkpt lat="49.08123" lon="0.77855">
        <ele>86.66</ele>
        <time>2020-12-12T08:36:31Z</time>
      </trkpt>
      <trkpt lat="49.0812" lon="0.77862">
        <ele>86.66</ele>
        <time>2020-12-12T08:36:32Z</time>
      </trkpt>
      <trkpt lat="49.08117" lon="0.7787">
        <ele>86.66</ele>
        <time>2020-12-12T08:36:33Z</time>
      </trkpt>
      <trkpt lat="49.08114" lon="0.77878">
        <ele>88.1</ele>
        <time>2020-12-12T08:36:34Z</time>
      </trkpt>
      <trkpt lat="49.08112" lon="0.77885">
        <ele>88.1</ele>
        <time>2020-12-12T08:36:35Z</time>
      </trkpt>
      <trkpt lat="49.08083" lon="0.77977">
        <ele>88.58</ele>
        <time>2020-12-12T08:36:47Z</time>
      </trkpt>
      <trkpt lat="49.08077" lon="0.77992">
        <ele>88.58</ele>
        <time>2020-12-12T08:36:49Z</time>
      </trkpt>
      <trkpt lat="49.0807" lon="0.78006">
        <ele>87.62</ele>
        <time>2020-12-12T08:36:51Z</time>
      </trkpt>
      <trkpt lat="49.08021" lon="0.78089">
        <ele>86.18</ele>
        <time>2020-12-12T08:37:04Z</time>
      </trkpt>
      <trkpt lat="49.08012" lon="0.78101">
        <ele>86.18</ele>
        <time>2020-12-12T08:37:06Z</time>
      </trkpt>
      <trkpt lat="49.08007" lon="0.78106">
        <ele>86.18</ele>
        <time>2020-12-12T08:37:07Z</time>
      </trkpt>
      <trkpt lat="49.07927" lon="0.78162">
        <ele>85.69</ele>
        <time>2020-12-12T08:37:21Z</time>
      </trkpt>
      <trkpt lat="49.07865" lon="0.78191">
        <ele>86.18</ele>
        <time>2020-12-12T08:37:35Z</time>
      </trkpt>
      <trkpt lat="49.07846" lon="0.78191">
        <ele>88.1</ele>
        <time>2020-12-12T08:37:42Z</time>
      </trkpt>
      <trkpt lat="49.07845" lon="0.78191">
        <ele>88.1</ele>
        <time>2020-12-12T08:37:43Z</time>
      </trkpt>
      <trkpt lat="49.07844" lon="0.78193">
        <ele>88.1</ele>
        <time>2020-12-12T08:37:44Z</time>
      </trkpt>
      <trkpt lat="49.07844" lon="0.78195">
        <ele>88.1</ele>
        <time>2020-12-12T08:37:45Z</time>
      </trkpt>
      <trkpt lat="49.07844" lon="0.78198">
        <ele>88.1</ele>
        <time>2020-12-12T08:37:46Z</time>
      </trkpt>
      <trkpt lat="49.07845" lon="0.78201">
        <ele>88.1</ele>
        <time>2020-12-12T08:37:47Z</time>
      </trkpt>
      <trkpt lat="49.07844" lon="0.78203">
        <ele>88.1</ele>
        <time>2020-12-12T08:37:48Z</time>
      </trkpt>
      <trkpt lat="49.07843" lon="0.78205">
        <ele>88.1</ele>
        <time>2020-12-12T08:37:49Z</time>
      </trkpt>
      <trkpt lat="49.07842" lon="0.78206">
        <ele>88.1</ele>
        <time>2020-12-12T08:37:50Z</time>
      </trkpt>
      <trkpt lat="49.07827" lon="0.78234">
        <ele>89.06</ele>
        <time>2020-12-12T08:38:00Z</time>
      </trkpt>
      <trkpt lat="49.07826" lon="0.78236">
        <ele>89.54</ele>
        <time>2020-12-12T08:38:01Z</time>
      </trkpt>
      <trkpt lat="49.07824" lon="0.78238">
        <ele>89.54</ele>
        <time>2020-12-12T08:38:02Z</time>
      </trkpt>
      <trkpt lat="49.07821" lon="0.78241">
        <ele>89.54</ele>
        <time>2020-12-12T08:38:03Z</time>
      </trkpt>
      <trkpt lat="49.07819" lon="0.78245">
        <ele>89.54</ele>
        <time>2020-12-12T08:38:04Z</time>
      </trkpt>
      <trkpt lat="49.07817" lon="0.78251">
        <ele>89.54</ele>
        <time>2020-12-12T08:38:05Z</time>
      </trkpt>
      <trkpt lat="49.07816" lon="0.78256">
        <ele>90.02</ele>
        <time>2020-12-12T08:38:06Z</time>
      </trkpt>
      <trkpt lat="49.07816" lon="0.78316">
        <ele>91.46</ele>
        <time>2020-12-12T08:38:19Z</time>
      </trkpt>
      <trkpt lat="49.07811" lon="0.78361">
        <ele>93.39</ele>
        <time>2020-12-12T08:38:31Z</time>
      </trkpt>
      <trkpt lat="49.07796" lon="0.78399">
        <ele>96.27</ele>
        <time>2020-12-12T08:38:46Z</time>
      </trkpt>
      <trkpt lat="49.07774" lon="0.78427">
        <ele>99.15</ele>
        <time>2020-12-12T08:39:02Z</time>
      </trkpt>
      <trkpt lat="49.0777" lon="0.78431">
        <ele>99.15</ele>
        <time>2020-12-12T08:39:06Z</time>
      </trkpt>
      <trkpt lat="49.07768" lon="0.78431">
        <ele>99.63</ele>
        <time>2020-12-12T08:39:07Z</time>
      </trkpt>
      <trkpt lat="49.07767" lon="0.78431">
        <ele>99.63</ele>
        <time>2020-12-12T08:39:08Z</time>
      </trkpt>
      <trkpt lat="49.07766" lon="0.78432">
        <ele>99.63</ele>
        <time>2020-12-12T08:39:09Z</time>
      </trkpt>
      <trkpt lat="49.07765" lon="0.78433">
        <ele>99.63</ele>
        <time>2020-12-12T08:39:10Z</time>
      </trkpt>
      <trkpt lat="49.07747" lon="0.78447">
        <ele>101.56</ele>
        <time>2020-12-12T08:39:24Z</time>
      </trkpt>
      <trkpt lat="49.07722" lon="0.78472">
        <ele>103.96</ele>
        <time>2020-12-12T08:39:43Z</time>
      </trkpt>
      <trkpt lat="49.07709" lon="0.78503">
        <ele>106.36</ele>
        <time>2020-12-12T08:40:00Z</time>
      </trkpt>
      <trkpt lat="49.07698" lon="0.7854">
        <ele>108.29</ele>
        <time>2020-12-12T08:40:17Z</time>
      </trkpt>
      <trkpt lat="49.07683" lon="0.78568">
        <ele>109.73</ele>
        <time>2020-12-12T08:40:31Z</time>
      </trkpt>
      <trkpt lat="49.07661" lon="0.78602">
        <ele>111.65</ele>
        <time>2020-12-12T08:40:48Z</time>
      </trkpt>
      <trkpt lat="49.07639" lon="0.78636">
        <ele>114.53</ele>
        <time>2020-12-12T08:41:06Z</time>
      </trkpt>
      <trkpt lat="49.0762" lon="0.78673">
        <ele>116.46</ele>
        <time>2020-12-12T08:41:23Z</time>
      </trkpt>
      <trkpt lat="49.07607" lon="0.78711">
        <ele>118.38</ele>
        <time>2020-12-12T08:41:40Z</time>
      </trkpt>
      <trkpt lat="49.076" lon="0.78726">
        <ele>119.82</ele>
        <time>2020-12-12T08:41:48Z</time>
      </trkpt>
      <trkpt lat="49.07599" lon="0.78728">
        <ele>119.82</ele>
        <time>2020-12-12T08:41:49Z</time>
      </trkpt>
      <trkpt lat="49.07584" lon="0.78757">
        <ele>123.19</ele>
        <time>2020-12-12T08:42:05Z</time>
      </trkpt>
      <trkpt lat="49.07568" lon="0.78787">
        <ele>126.55</ele>
        <time>2020-12-12T08:42:22Z</time>
      </trkpt>
      <trkpt lat="49.07553" lon="0.78813">
        <ele>128.47</ele>
        <time>2020-12-12T08:42:36Z</time>
      </trkpt>
      <trkpt lat="49.07535" lon="0.78849">
        <ele>131.36</ele>
        <time>2020-12-12T08:42:54Z</time>
      </trkpt>
      <trkpt lat="49.07521" lon="0.78886">
        <ele>133.76</ele>
        <time>2020-12-12T08:43:11Z</time>
      </trkpt>
      <trkpt lat="49.0751" lon="0.78925">
        <ele>134.24</ele>
        <time>2020-12-12T08:43:23Z</time>
      </trkpt>
      <trkpt lat="49.07496" lon="0.79002">
        <ele>135.68</ele>
        <time>2020-12-12T08:43:39Z</time>
      </trkpt>
      <trkpt lat="49.07491" lon="0.79047">
        <ele>136.16</ele>
        <time>2020-12-12T08:43:52Z</time>
      </trkpt>
      <trkpt lat="49.07467" lon="0.79093">
        <ele>136.16</ele>
        <time>2020-12-12T08:44:04Z</time>
      </trkpt>
      <trkpt lat="49.07431" lon="0.79145">
        <ele>136.16</ele>
        <time>2020-12-12T08:44:18Z</time>
      </trkpt>
      <trkpt lat="49.0742" lon="0.79162">
        <ele>134.24</ele>
        <time>2020-12-12T08:44:22Z</time>
      </trkpt>
      <trkpt lat="49.07386" lon="0.79227">
        <ele>133.28</ele>
        <time>2020-12-12T08:44:37Z</time>
      </trkpt>
      <trkpt lat="49.07367" lon="0.79279">
        <ele>133.28</ele>
        <time>2020-12-12T08:44:51Z</time>
      </trkpt>
      <trkpt lat="49.07346" lon="0.79339">
        <ele>135.2</ele>
        <time>2020-12-12T08:45:06Z</time>
      </trkpt>
      <trkpt lat="49.07323" lon="0.79382">
        <ele>135.2</ele>
        <time>2020-12-12T08:45:18Z</time>
      </trkpt>
      <trkpt lat="49.07294" lon="0.79421">
        <ele>135.2</ele>
        <time>2020-12-12T08:45:32Z</time>
      </trkpt>
      <trkpt lat="49.07268" lon="0.79457">
        <ele>133.76</ele>
        <time>2020-12-12T08:45:44Z</time>
      </trkpt>
      <trkpt lat="49.07231" lon="0.79505">
        <ele>132.32</ele>
        <time>2020-12-12T08:45:59Z</time>
      </trkpt>
      <trkpt lat="49.07195" lon="0.79543">
        <ele>129.92</ele>
        <time>2020-12-12T08:46:13Z</time>
      </trkpt>
      <trkpt lat="49.07184" lon="0.79548">
        <ele>128.95</ele>
        <time>2020-12-12T08:46:18Z</time>
      </trkpt>
      <trkpt lat="49.07181" lon="0.79547">
        <ele>128.95</ele>
        <time>2020-12-12T08:46:19Z</time>
      </trkpt>
      <trkpt lat="49.07179" lon="0.79546">
        <ele>127.99</ele>
        <time>2020-12-12T08:46:20Z</time>
      </trkpt>
      <trkpt lat="49.07176" lon="0.79545">
        <ele>127.99</ele>
        <time>2020-12-12T08:46:21Z</time>
      </trkpt>
      <trkpt lat="49.07174" lon="0.79543">
        <ele>127.51</ele>
        <time>2020-12-12T08:46:22Z</time>
      </trkpt>
      <trkpt lat="49.07171" lon="0.79541">
        <ele>127.03</ele>
        <time>2020-12-12T08:46:23Z</time>
      </trkpt>
      <trkpt lat="49.07168" lon="0.7954">
        <ele>126.55</ele>
        <time>2020-12-12T08:46:24Z</time>
      </trkpt>
      <trkpt lat="49.07162" lon="0.79539">
        <ele>125.11</ele>
        <time>2020-12-12T08:46:26Z</time>
      </trkpt>
      <trkpt lat="49.07159" lon="0.7954">
        <ele>124.63</ele>
        <time>2020-12-12T08:46:27Z</time>
      </trkpt>
      <trkpt lat="49.07134" lon="0.7955">
        <ele>121.26</ele>
        <time>2020-12-12T08:46:35Z</time>
      </trkpt>
      <trkpt lat="49.07113" lon="0.79574">
        <ele>117.9</ele>
        <time>2020-12-12T08:46:44Z</time>
      </trkpt>
      <trkpt lat="49.07093" lon="0.79598">
        <ele>114.53</ele>
        <time>2020-12-12T08:46:52Z</time>
      </trkpt>
      <trkpt lat="49.07084" lon="0.79632">
        <ele>111.17</ele>
        <time>2020-12-12T08:47:00Z</time>
      </trkpt>
      <trkpt lat="49.07081" lon="0.7966">
        <ele>109.73</ele>
        <time>2020-12-12T08:47:04Z</time>
      </trkpt>
      <trkpt lat="49.07072" lon="0.79748">
        <ele>107.32</ele>
        <time>2020-12-12T08:47:16Z</time>
      </trkpt>
      <trkpt lat="49.07067" lon="0.79784">
        <ele>106.36</ele>
        <time>2020-12-12T08:47:21Z</time>
      </trkpt>
      <trkpt lat="49.07053" lon="0.7983">
        <ele>105.88</ele>
        <time>2020-12-12T08:47:30Z</time>
      </trkpt>
      <trkpt lat="49.0702" lon="0.79852">
        <ele>103</ele>
        <time>2020-12-12T08:47:41Z</time>
      </trkpt>
      <trkpt lat="49.06998" lon="0.79865">
        <ele>103</ele>
        <time>2020-12-12T08:47:52Z</time>
      </trkpt>
      <trkpt lat="49.06993" lon="0.79871">
        <ele>103</ele>
        <time>2020-12-12T08:48:00Z</time>
      </trkpt>
      <trkpt lat="49.06973" lon="0.79918">
        <ele>101.56</ele>
        <time>2020-12-12T08:48:13Z</time>
      </trkpt>
      <trkpt lat="49.0695" lon="0.79971">
        <ele>101.56</ele>
        <time>2020-12-12T08:48:26Z</time>
      </trkpt>
      <trkpt lat="49.06932" lon="0.80017">
        <ele>102.04</ele>
        <time>2020-12-12T08:48:37Z</time>
      </trkpt>
      <trkpt lat="49.06928" lon="0.80027">
        <ele>103</ele>
        <time>2020-12-12T08:48:40Z</time>
      </trkpt>
      <trkpt lat="49.06902" lon="0.80079">
        <ele>103.48</ele>
        <time>2020-12-12T08:48:54Z</time>
      </trkpt>
      <trkpt lat="49.06871" lon="0.8013">
        <ele>103.48</ele>
        <time>2020-12-12T08:49:07Z</time>
      </trkpt>
      <trkpt lat="49.06832" lon="0.8017">
        <ele>103.48</ele>
        <time>2020-12-12T08:49:21Z</time>
      </trkpt>
      <trkpt lat="49.06776" lon="0.80193">
        <ele>103.96</ele>
        <time>2020-12-12T08:49:38Z</time>
      </trkpt>
      <trkpt lat="49.06724" lon="0.80221">
        <ele>104.92</ele>
        <time>2020-12-12T08:49:54Z</time>
      </trkpt>
      <trkpt lat="49.06686" lon="0.80252">
        <ele>106.84</ele>
        <time>2020-12-12T08:50:10Z</time>
      </trkpt>
      <trkpt lat="49.06661" lon="0.80292">
        <ele>107.81</ele>
        <time>2020-12-12T08:50:25Z</time>
      </trkpt>
      <trkpt lat="49.06638" lon="0.80338">
        <ele>108.29</ele>
        <time>2020-12-12T08:50:38Z</time>
      </trkpt>
      <trkpt lat="49.06602" lon="0.80356">
        <ele>108.77</ele>
        <time>2020-12-12T08:50:52Z</time>
      </trkpt>
      <trkpt lat="49.06556" lon="0.80374">
        <ele>109.73</ele>
        <time>2020-12-12T08:51:06Z</time>
      </trkpt>
      <trkpt lat="49.06533" lon="0.80408">
        <ele>110.21</ele>
        <time>2020-12-12T08:51:18Z</time>
      </trkpt>
      <trkpt lat="49.06522" lon="0.80453">
        <ele>111.17</ele>
        <time>2020-12-12T08:51:30Z</time>
      </trkpt>
      <trkpt lat="49.06506" lon="0.80508">
        <ele>111.65</ele>
        <time>2020-12-12T08:51:44Z</time>
      </trkpt>
      <trkpt lat="49.06477" lon="0.80558">
        <ele>111.65</ele>
        <time>2020-12-12T08:51:57Z</time>
      </trkpt>
      <trkpt lat="49.06467" lon="0.80602">
        <ele>111.65</ele>
        <time>2020-12-12T08:52:07Z</time>
      </trkpt>
      <trkpt lat="49.06464" lon="0.80636">
        <ele>113.57</ele>
        <time>2020-12-12T08:52:17Z</time>
      </trkpt>
      <trkpt lat="49.06469" lon="0.80672">
        <ele>113.57</ele>
        <time>2020-12-12T08:52:27Z</time>
      </trkpt>
      <trkpt lat="49.06474" lon="0.80715">
        <ele>113.57</ele>
        <time>2020-12-12T08:52:37Z</time>
      </trkpt>
      <trkpt lat="49.06476" lon="0.80756">
        <ele>114.05</ele>
        <time>2020-12-12T08:52:45Z</time>
      </trkpt>
      <trkpt lat="49.06476" lon="0.8076">
        <ele>114.05</ele>
        <time>2020-12-12T08:52:46Z</time>
      </trkpt>
      <trkpt lat="49.06474" lon="0.80804">
        <ele>114.53</ele>
        <time>2020-12-12T08:52:57Z</time>
      </trkpt>
      <trkpt lat="49.06473" lon="0.80807">
        <ele>114.53</ele>
        <time>2020-12-12T08:52:58Z</time>
      </trkpt>
      <trkpt lat="49.06472" lon="0.80811">
        <ele>114.53</ele>
        <time>2020-12-12T08:52:59Z</time>
      </trkpt>
      <trkpt lat="49.06471" lon="0.80815">
        <ele>114.53</ele>
        <time>2020-12-12T08:53:00Z</time>
      </trkpt>
      <trkpt lat="49.0647" lon="0.8082">
        <ele>114.53</ele>
        <time>2020-12-12T08:53:01Z</time>
      </trkpt>
      <trkpt lat="49.06468" lon="0.80824">
        <ele>114.53</ele>
        <time>2020-12-12T08:53:02Z</time>
      </trkpt>
      <trkpt lat="49.06453" lon="0.80858">
        <ele>115.98</ele>
        <time>2020-12-12T08:53:12Z</time>
      </trkpt>
      <trkpt lat="49.06434" lon="0.80873">
        <ele>116.46</ele>
        <time>2020-12-12T08:53:20Z</time>
      </trkpt>
      <trkpt lat="49.06432" lon="0.80875">
        <ele>116.46</ele>
        <time>2020-12-12T08:53:21Z</time>
      </trkpt>
      <trkpt lat="49.06431" lon="0.80878">
        <ele>116.46</ele>
        <time>2020-12-12T08:53:22Z</time>
      </trkpt>
      <trkpt lat="49.06429" lon="0.80881">
        <ele>116.46</ele>
        <time>2020-12-12T08:53:23Z</time>
      </trkpt>
      <trkpt lat="49.06426" lon="0.80885">
        <ele>116.46</ele>
        <time>2020-12-12T08:53:24Z</time>
      </trkpt>
      <trkpt lat="49.06411" lon="0.80914">
        <ele>116.94</ele>
        <time>2020-12-12T08:53:32Z</time>
      </trkpt>
      <trkpt lat="49.06407" lon="0.80927">
        <ele>116.94</ele>
        <time>2020-12-12T08:53:35Z</time>
      </trkpt>
      <trkpt lat="49.06406" lon="0.80931">
        <ele>116.94</ele>
        <time>2020-12-12T08:53:36Z</time>
      </trkpt>
      <trkpt lat="49.06404" lon="0.80937">
        <ele>116.94</ele>
        <time>2020-12-12T08:53:37Z</time>
      </trkpt>
      <trkpt lat="49.06397" lon="0.80989">
        <ele>117.9</ele>
        <time>2020-12-12T08:53:47Z</time>
      </trkpt>
      <trkpt lat="49.06397" lon="0.80995">
        <ele>117.9</ele>
        <time>2020-12-12T08:53:48Z</time>
      </trkpt>
      <trkpt lat="49.06394" lon="0.81003">
        <ele>117.9</ele>
        <time>2020-12-12T08:53:49Z</time>
      </trkpt>
      <trkpt lat="49.06392" lon="0.8101">
        <ele>117.9</ele>
        <time>2020-12-12T08:53:50Z</time>
      </trkpt>
      <trkpt lat="49.06392" lon="0.81014">
        <ele>117.9</ele>
        <time>2020-12-12T08:53:51Z</time>
      </trkpt>
      <trkpt lat="49.06392" lon="0.81019">
        <ele>118.38</ele>
        <time>2020-12-12T08:53:52Z</time>
      </trkpt>
      <trkpt lat="49.06392" lon="0.81023">
        <ele>118.38</ele>
        <time>2020-12-12T08:53:53Z</time>
      </trkpt>
      <trkpt lat="49.06393" lon="0.81027">
        <ele>118.38</ele>
        <time>2020-12-12T08:53:54Z</time>
      </trkpt>
      <trkpt lat="49.06407" lon="0.81062">
        <ele>119.82</ele>
        <time>2020-12-12T08:54:04Z</time>
      </trkpt>
      <trkpt lat="49.06407" lon="0.81065">
        <ele>119.82</ele>
        <time>2020-12-12T08:54:05Z</time>
      </trkpt>
      <trkpt lat="49.06409" lon="0.81069">
        <ele>119.82</ele>
        <time>2020-12-12T08:54:06Z</time>
      </trkpt>
      <trkpt lat="49.06423" lon="0.81106">
        <ele>120.78</ele>
        <time>2020-12-12T08:54:16Z</time>
      </trkpt>
      <trkpt lat="49.06433" lon="0.81134">
        <ele>121.74</ele>
        <time>2020-12-12T08:54:26Z</time>
      </trkpt>
      <trkpt lat="49.06433" lon="0.81137">
        <ele>121.74</ele>
        <time>2020-12-12T08:54:27Z</time>
      </trkpt>
      <trkpt lat="49.06434" lon="0.8114">
        <ele>121.74</ele>
        <time>2020-12-12T08:54:28Z</time>
      </trkpt>
      <trkpt lat="49.06442" lon="0.81177">
        <ele>122.22</ele>
        <time>2020-12-12T08:54:40Z</time>
      </trkpt>
      <trkpt lat="49.06461" lon="0.81207">
        <ele>122.22</ele>
        <time>2020-12-12T08:54:50Z</time>
      </trkpt>
      <trkpt lat="49.06474" lon="0.81261">
        <ele>122.71</ele>
        <time>2020-12-12T08:55:02Z</time>
      </trkpt>
      <trkpt lat="49.06492" lon="0.81303">
        <ele>122.71</ele>
        <time>2020-12-12T08:55:13Z</time>
      </trkpt>
      <trkpt lat="49.06497" lon="0.81315">
        <ele>122.71</ele>
        <time>2020-12-12T08:55:17Z</time>
      </trkpt>
      <trkpt lat="49.06499" lon="0.81316">
        <ele>123.19</ele>
        <time>2020-12-12T08:55:18Z</time>
      </trkpt>
      <trkpt lat="49.06501" lon="0.81318">
        <ele>123.19</ele>
        <time>2020-12-12T08:55:19Z</time>
      </trkpt>
      <trkpt lat="49.06531" lon="0.81329">
        <ele>124.15</ele>
        <time>2020-12-12T08:55:32Z</time>
      </trkpt>
      <trkpt lat="49.06533" lon="0.8133">
        <ele>124.15</ele>
        <time>2020-12-12T08:55:33Z</time>
      </trkpt>
      <trkpt lat="49.06537" lon="0.81332">
        <ele>124.15</ele>
        <time>2020-12-12T08:55:36Z</time>
      </trkpt>
      <trkpt lat="49.06564" lon="0.8132">
        <ele>125.11</ele>
        <time>2020-12-12T08:55:49Z</time>
      </trkpt>
      <trkpt lat="49.06588" lon="0.81304">
        <ele>125.59</ele>
        <time>2020-12-12T08:55:59Z</time>
      </trkpt>
      <trkpt lat="49.06613" lon="0.81283">
        <ele>125.59</ele>
        <time>2020-12-12T08:56:09Z</time>
      </trkpt>
      <trkpt lat="49.06642" lon="0.81258">
        <ele>126.55</ele>
        <time>2020-12-12T08:56:24Z</time>
      </trkpt>
      <trkpt lat="49.06664" lon="0.81241">
        <ele>127.51</ele>
        <time>2020-12-12T08:56:34Z</time>
      </trkpt>
      <trkpt lat="49.06672" lon="0.81239">
        <ele>127.51</ele>
        <time>2020-12-12T08:56:38Z</time>
      </trkpt>
      <trkpt lat="49.06682" lon="0.81237">
        <ele>127.99</ele>
        <time>2020-12-12T08:56:43Z</time>
      </trkpt>
      <trkpt lat="49.06716" lon="0.81237">
        <ele>128.95</ele>
        <time>2020-12-12T08:56:56Z</time>
      </trkpt>
      <trkpt lat="49.06747" lon="0.81243">
        <ele>129.43</ele>
        <time>2020-12-12T08:57:07Z</time>
      </trkpt>
      <trkpt lat="49.0677" lon="0.81254">
        <ele>129.92</ele>
        <time>2020-12-12T08:57:17Z</time>
      </trkpt>
      <trkpt lat="49.06804" lon="0.81256">
        <ele>129.92</ele>
        <time>2020-12-12T08:57:30Z</time>
      </trkpt>
      <trkpt lat="49.06823" lon="0.81253">
        <ele>130.4</ele>
        <time>2020-12-12T08:57:41Z</time>
      </trkpt>
      <trkpt lat="49.06836" lon="0.81253">
        <ele>131.36</ele>
        <time>2020-12-12T08:57:48Z</time>
      </trkpt>
      <trkpt lat="49.06858" lon="0.81281">
        <ele>132.32</ele>
        <time>2020-12-12T08:58:04Z</time>
      </trkpt>
      <trkpt lat="49.06881" lon="0.81315">
        <ele>133.76</ele>
        <time>2020-12-12T08:58:19Z</time>
      </trkpt>
      <trkpt lat="49.06905" lon="0.81346">
        <ele>134.72</ele>
        <time>2020-12-12T08:58:34Z</time>
      </trkpt>
      <trkpt lat="49.06935" lon="0.81371">
        <ele>136.16</ele>
        <time>2020-12-12T08:58:49Z</time>
      </trkpt>
      <trkpt lat="49.06956" lon="0.81391">
        <ele>136.64</ele>
        <time>2020-12-12T08:59:03Z</time>
      </trkpt>
      <trkpt lat="49.06958" lon="0.81393">
        <ele>137.13</ele>
        <time>2020-12-12T08:59:04Z</time>
      </trkpt>
      <trkpt lat="49.06968" lon="0.8144">
        <ele>138.09</ele>
        <time>2020-12-12T08:59:21Z</time>
      </trkpt>
      <trkpt lat="49.06969" lon="0.81442">
        <ele>138.57</ele>
        <time>2020-12-12T08:59:35Z</time>
      </trkpt>
      <trkpt lat="49.0697" lon="0.81474">
        <ele>139.05</ele>
        <time>2020-12-12T08:59:47Z</time>
      </trkpt>
      <trkpt lat="49.06975" lon="0.81524">
        <ele>140.01</ele>
        <time>2020-12-12T09:00:01Z</time>
      </trkpt>
      <trkpt lat="49.06978" lon="0.81565">
        <ele>140.97</ele>
        <time>2020-12-12T09:00:13Z</time>
      </trkpt>
      <trkpt lat="49.06981" lon="0.81617">
        <ele>142.89</ele>
        <time>2020-12-12T09:00:27Z</time>
      </trkpt>
      <trkpt lat="49.06986" lon="0.81656">
        <ele>143.85</ele>
        <time>2020-12-12T09:00:39Z</time>
      </trkpt>
      <trkpt lat="49.06985" lon="0.81658">
        <ele>143.85</ele>
        <time>2020-12-12T09:00:40Z</time>
      </trkpt>
      <trkpt lat="49.06985" lon="0.81661">
        <ele>144.34</ele>
        <time>2020-12-12T09:00:41Z</time>
      </trkpt>
      <trkpt lat="49.06985" lon="0.81664">
        <ele>144.34</ele>
        <time>2020-12-12T09:00:42Z</time>
      </trkpt>
      <trkpt lat="49.06985" lon="0.81668">
        <ele>144.34</ele>
        <time>2020-12-12T09:00:43Z</time>
      </trkpt>
      <trkpt lat="49.06985" lon="0.81671">
        <ele>144.34</ele>
        <time>2020-12-12T09:00:44Z</time>
      </trkpt>
      <trkpt lat="49.06986" lon="0.81674">
        <ele>144.34</ele>
        <time>2020-12-12T09:00:45Z</time>
      </trkpt>
      <trkpt lat="49.06994" lon="0.81695">
        <ele>145.3</ele>
        <time>2020-12-12T09:00:56Z</time>
      </trkpt>
      <trkpt lat="49.06996" lon="0.81696">
        <ele>145.3</ele>
        <time>2020-12-12T09:00:57Z</time>
      </trkpt>
      <trkpt lat="49.06997" lon="0.81696">
        <ele>145.3</ele>
        <time>2020-12-12T09:00:58Z</time>
      </trkpt>
      <trkpt lat="49.07" lon="0.81696">
        <ele>145.3</ele>
        <time>2020-12-12T09:00:59Z</time>
      </trkpt>
      <trkpt lat="49.07002" lon="0.81695">
        <ele>145.3</ele>
        <time>2020-12-12T09:01:00Z</time>
      </trkpt>
      <trkpt lat="49.07004" lon="0.81693">
        <ele>145.3</ele>
        <time>2020-12-12T09:01:01Z</time>
      </trkpt>
      <trkpt lat="49.07036" lon="0.81644">
        <ele>144.34</ele>
        <time>2020-12-12T09:01:15Z</time>
      </trkpt>
      <trkpt lat="49.07069" lon="0.81586">
        <ele>143.85</ele>
        <time>2020-12-12T09:01:29Z</time>
      </trkpt>
      <trkpt lat="49.07122" lon="0.81494">
        <ele>143.85</ele>
        <time>2020-12-12T09:01:49Z</time>
      </trkpt>
      <trkpt lat="49.07163" lon="0.81422">
        <ele>143.85</ele>
        <time>2020-12-12T09:02:04Z</time>
      </trkpt>
      <trkpt lat="49.07166" lon="0.81417">
        <ele>143.85</ele>
        <time>2020-12-12T09:02:05Z</time>
      </trkpt>
      <trkpt lat="49.07182" lon="0.81388">
        <ele>143.85</ele>
        <time>2020-12-12T09:02:11Z</time>
      </trkpt>
      <trkpt lat="49.07218" lon="0.81285">
        <ele>144.34</ele>
        <time>2020-12-12T09:02:28Z</time>
      </trkpt>
      <trkpt lat="49.07248" lon="0.81194">
        <ele>143.85</ele>
        <time>2020-12-12T09:02:41Z</time>
      </trkpt>
      <trkpt lat="49.07293" lon="0.81061">
        <ele>142.89</ele>
        <time>2020-12-12T09:02:58Z</time>
      </trkpt>
      <trkpt lat="49.07327" lon="0.8095">
        <ele>142.41</ele>
        <time>2020-12-12T09:03:14Z</time>
      </trkpt>
      <trkpt lat="49.07357" lon="0.80839">
        <ele>140.49</ele>
        <time>2020-12-12T09:03:30Z</time>
      </trkpt>
      <trkpt lat="49.07379" lon="0.80739">
        <ele>140.49</ele>
        <time>2020-12-12T09:03:45Z</time>
      </trkpt>
      <trkpt lat="49.07399" lon="0.80651">
        <ele>138.57</ele>
        <time>2020-12-12T09:04:00Z</time>
      </trkpt>
      <trkpt lat="49.07406" lon="0.80645">
        <ele>138.57</ele>
        <time>2020-12-12T09:04:08Z</time>
      </trkpt>
      <trkpt lat="49.07408" lon="0.80644">
        <ele>138.57</ele>
        <time>2020-12-12T09:04:32Z</time>
      </trkpt>
      <trkpt lat="49.07409" lon="0.80642">
        <ele>138.57</ele>
        <time>2020-12-12T09:04:33Z</time>
      </trkpt>
      <trkpt lat="49.07409" lon="0.80639">
        <ele>138.57</ele>
        <time>2020-12-12T09:04:34Z</time>
      </trkpt>
      <trkpt lat="49.07409" lon="0.80636">
        <ele>138.57</ele>
        <time>2020-12-12T09:04:35Z</time>
      </trkpt>
      <trkpt lat="49.07409" lon="0.80633">
        <ele>138.09</ele>
        <time>2020-12-12T09:04:36Z</time>
      </trkpt>
      <trkpt lat="49.07409" lon="0.80629">
        <ele>138.09</ele>
        <time>2020-12-12T09:04:37Z</time>
      </trkpt>
      <trkpt lat="49.07423" lon="0.80572">
        <ele>138.09</ele>
        <time>2020-12-12T09:04:50Z</time>
      </trkpt>
      <trkpt lat="49.07443" lon="0.80502">
        <ele>138.09</ele>
        <time>2020-12-12T09:05:06Z</time>
      </trkpt>
      <trkpt lat="49.07457" lon="0.80455">
        <ele>138.09</ele>
        <time>2020-12-12T09:05:19Z</time>
      </trkpt>
      <trkpt lat="49.07475" lon="0.80388">
        <ele>139.05</ele>
        <time>2020-12-12T09:05:36Z</time>
      </trkpt>
      <trkpt lat="49.07498" lon="0.80306">
        <ele>140.97</ele>
        <time>2020-12-12T09:05:55Z</time>
      </trkpt>
      <trkpt lat="49.07528" lon="0.80249">
        <ele>141.93</ele>
        <time>2020-12-12T09:06:11Z</time>
      </trkpt>
      <trkpt lat="49.07559" lon="0.80192">
        <ele>143.37</ele>
        <time>2020-12-12T09:06:28Z</time>
      </trkpt>
      <trkpt lat="49.07593" lon="0.8011">
        <ele>143.37</ele>
        <time>2020-12-12T09:06:49Z</time>
      </trkpt>
      <trkpt lat="49.07618" lon="0.8001">
        <ele>143.85</ele>
        <time>2020-12-12T09:07:09Z</time>
      </trkpt>
      <trkpt lat="49.07644" lon="0.79916">
        <ele>143.85</ele>
        <time>2020-12-12T09:07:27Z</time>
      </trkpt>
      <trkpt lat="49.07663" lon="0.7986">
        <ele>144.34</ele>
        <time>2020-12-12T09:07:40Z</time>
      </trkpt>
      <trkpt lat="49.07686" lon="0.79768">
        <ele>144.34</ele>
        <time>2020-12-12T09:07:58Z</time>
      </trkpt>
      <trkpt lat="49.07699" lon="0.7968">
        <ele>144.34</ele>
        <time>2020-12-12T09:08:15Z</time>
      </trkpt>
      <trkpt lat="49.07712" lon="0.79629">
        <ele>144.34</ele>
        <time>2020-12-12T09:08:28Z</time>
      </trkpt>
      <trkpt lat="49.07726" lon="0.7957">
        <ele>144.34</ele>
        <time>2020-12-12T09:08:42Z</time>
      </trkpt>
      <trkpt lat="49.07731" lon="0.79547">
        <ele>144.34</ele>
        <time>2020-12-12T09:08:47Z</time>
      </trkpt>
      <trkpt lat="49.07731" lon="0.79543">
        <ele>144.34</ele>
        <time>2020-12-12T09:08:48Z</time>
      </trkpt>
      <trkpt lat="49.07753" lon="0.79455">
        <ele>144.34</ele>
        <time>2020-12-12T09:09:06Z</time>
      </trkpt>
      <trkpt lat="49.07774" lon="0.79374">
        <ele>144.82</ele>
        <time>2020-12-12T09:09:25Z</time>
      </trkpt>
      <trkpt lat="49.07785" lon="0.79297">
        <ele>145.78</ele>
        <time>2020-12-12T09:09:43Z</time>
      </trkpt>
      <trkpt lat="49.07787" lon="0.79225">
        <ele>145.78</ele>
        <time>2020-12-12T09:09:58Z</time>
      </trkpt>
      <trkpt lat="49.07774" lon="0.79149">
        <ele>145.78</ele>
        <time>2020-12-12T09:10:13Z</time>
      </trkpt>
      <trkpt lat="49.07763" lon="0.79096">
        <ele>144.34</ele>
        <time>2020-12-12T09:10:24Z</time>
      </trkpt>
      <trkpt lat="49.07749" lon="0.79057">
        <ele>141.93</ele>
        <time>2020-12-12T09:10:33Z</time>
      </trkpt>
      <trkpt lat="49.07746" lon="0.79051">
        <ele>141.93</ele>
        <time>2020-12-12T09:10:34Z</time>
      </trkpt>
      <trkpt lat="49.07743" lon="0.79045">
        <ele>141.45</ele>
        <time>2020-12-12T09:10:35Z</time>
      </trkpt>
      <trkpt lat="49.0774" lon="0.79039">
        <ele>141.45</ele>
        <time>2020-12-12T09:10:36Z</time>
      </trkpt>
      <trkpt lat="49.07736" lon="0.79034">
        <ele>140.97</ele>
        <time>2020-12-12T09:10:37Z</time>
      </trkpt>
      <trkpt lat="49.0772" lon="0.7901">
        <ele>138.09</ele>
        <time>2020-12-12T09:10:45Z</time>
      </trkpt>
      <trkpt lat="49.07721" lon="0.79009">
        <ele>138.09</ele>
        <time>2020-12-12T09:10:46Z</time>
      </trkpt>
      <trkpt lat="49.07722" lon="0.79009">
        <ele>138.09</ele>
        <time>2020-12-12T09:10:47Z</time>
      </trkpt>
      <trkpt lat="49.07727" lon="0.79016">
        <ele>138.57</ele>
        <time>2020-12-12T09:10:51Z</time>
      </trkpt>
      <trkpt lat="49.07729" lon="0.79018">
        <ele>138.57</ele>
        <time>2020-12-12T09:10:52Z</time>
      </trkpt>
      <trkpt lat="49.07749" lon="0.79049">
        <ele>141.93</ele>
        <time>2020-12-12T09:11:03Z</time>
      </trkpt>
      <trkpt lat="49.0776" lon="0.79065">
        <ele>142.89</ele>
        <time>2020-12-12T09:11:09Z</time>
      </trkpt>
      <trkpt lat="49.07762" lon="0.79063">
        <ele>142.89</ele>
        <time>2020-12-12T09:11:10Z</time>
      </trkpt>
      <trkpt lat="49.07763" lon="0.79059">
        <ele>142.89</ele>
        <time>2020-12-12T09:11:11Z</time>
      </trkpt>
      <trkpt lat="49.07764" lon="0.79055">
        <ele>142.89</ele>
        <time>2020-12-12T09:11:12Z</time>
      </trkpt>
      <trkpt lat="49.07765" lon="0.79051">
        <ele>142.89</ele>
        <time>2020-12-12T09:11:13Z</time>
      </trkpt>
      <trkpt lat="49.07765" lon="0.79046">
        <ele>142.89</ele>
        <time>2020-12-12T09:11:14Z</time>
      </trkpt>
      <trkpt lat="49.07771" lon="0.79017">
        <ele>141.45</ele>
        <time>2020-12-12T09:11:22Z</time>
      </trkpt>
      <trkpt lat="49.07781" lon="0.78969">
        <ele>139.53</ele>
        <time>2020-12-12T09:11:34Z</time>
      </trkpt>
      <trkpt lat="49.0779" lon="0.78917">
        <ele>136.16</ele>
        <time>2020-12-12T09:11:46Z</time>
      </trkpt>
      <trkpt lat="49.07799" lon="0.78872">
        <ele>134.24</ele>
        <time>2020-12-12T09:11:54Z</time>
      </trkpt>
      <trkpt lat="49.078" lon="0.78866">
        <ele>133.28</ele>
        <time>2020-12-12T09:11:55Z</time>
      </trkpt>
      <trkpt lat="49.07801" lon="0.7886">
        <ele>133.28</ele>
        <time>2020-12-12T09:11:56Z</time>
      </trkpt>
      <trkpt lat="49.07802" lon="0.78855">
        <ele>132.8</ele>
        <time>2020-12-12T09:11:57Z</time>
      </trkpt>
      <trkpt lat="49.07803" lon="0.7885">
        <ele>132.32</ele>
        <time>2020-12-12T09:11:58Z</time>
      </trkpt>
      <trkpt lat="49.07813" lon="0.78805">
        <ele>128.95</ele>
        <time>2020-12-12T09:12:08Z</time>
      </trkpt>
      <trkpt lat="49.07816" lon="0.78776">
        <ele>126.07</ele>
        <time>2020-12-12T09:12:14Z</time>
      </trkpt>
      <trkpt lat="49.07818" lon="0.78741">
        <ele>121.74</ele>
        <time>2020-12-12T09:12:19Z</time>
      </trkpt>
      <trkpt lat="49.07819" lon="0.78712">
        <ele>118.86</ele>
        <time>2020-12-12T09:12:23Z</time>
      </trkpt>
      <trkpt lat="49.0782" lon="0.78679">
        <ele>115.5</ele>
        <time>2020-12-12T09:12:27Z</time>
      </trkpt>
      <trkpt lat="49.0782" lon="0.7867">
        <ele>115.5</ele>
        <time>2020-12-12T09:12:28Z</time>
      </trkpt>
      <trkpt lat="49.07817" lon="0.78625">
        <ele>112.13</ele>
        <time>2020-12-12T09:12:34Z</time>
      </trkpt>
      <trkpt lat="49.07814" lon="0.78594">
        <ele>110.21</ele>
        <time>2020-12-12T09:12:39Z</time>
      </trkpt>
      <trkpt lat="49.07814" lon="0.78586">
        <ele>109.25</ele>
        <time>2020-12-12T09:12:40Z</time>
      </trkpt>
      <trkpt lat="49.07812" lon="0.78548">
        <ele>106.36</ele>
        <time>2020-12-12T09:12:45Z</time>
      </trkpt>
      <trkpt lat="49.07811" lon="0.78534">
        <ele>105.88</ele>
        <time>2020-12-12T09:12:47Z</time>
      </trkpt>
      <trkpt lat="49.07811" lon="0.78526">
        <ele>105.4</ele>
        <time>2020-12-12T09:12:48Z</time>
      </trkpt>
      <trkpt lat="49.0781" lon="0.78518">
        <ele>104.92</ele>
        <time>2020-12-12T09:12:49Z</time>
      </trkpt>
      <trkpt lat="49.07809" lon="0.78511">
        <ele>104.44</ele>
        <time>2020-12-12T09:12:50Z</time>
      </trkpt>
      <trkpt lat="49.07807" lon="0.78503">
        <ele>103.48</ele>
        <time>2020-12-12T09:12:51Z</time>
      </trkpt>
      <trkpt lat="49.07806" lon="0.78496">
        <ele>103</ele>
        <time>2020-12-12T09:12:52Z</time>
      </trkpt>
      <trkpt lat="49.07803" lon="0.78488">
        <ele>102.52</ele>
        <time>2020-12-12T09:12:53Z</time>
      </trkpt>
      <trkpt lat="49.078" lon="0.78482">
        <ele>101.56</ele>
        <time>2020-12-12T09:12:54Z</time>
      </trkpt>
      <trkpt lat="49.07797" lon="0.78475">
        <ele>101.08</ele>
        <time>2020-12-12T09:12:55Z</time>
      </trkpt>
      <trkpt lat="49.07795" lon="0.78469">
        <ele>100.11</ele>
        <time>2020-12-12T09:12:56Z</time>
      </trkpt>
      <trkpt lat="49.07792" lon="0.78463">
        <ele>99.63</ele>
        <time>2020-12-12T09:12:57Z</time>
      </trkpt>
      <trkpt lat="49.0779" lon="0.78457">
        <ele>99.15</ele>
        <time>2020-12-12T09:12:58Z</time>
      </trkpt>
      <trkpt lat="49.07788" lon="0.78451">
        <ele>98.67</ele>
        <time>2020-12-12T09:12:59Z</time>
      </trkpt>
      <trkpt lat="49.07787" lon="0.78445">
        <ele>98.67</ele>
        <time>2020-12-12T09:13:00Z</time>
      </trkpt>
      <trkpt lat="49.07786" lon="0.78439">
        <ele>97.71</ele>
        <time>2020-12-12T09:13:01Z</time>
      </trkpt>
      <trkpt lat="49.07785" lon="0.78425">
        <ele>96.27</ele>
        <time>2020-12-12T09:13:07Z</time>
      </trkpt>
      <trkpt lat="49.07786" lon="0.78422">
        <ele>96.27</ele>
        <time>2020-12-12T09:13:08Z</time>
      </trkpt>
      <trkpt lat="49.07788" lon="0.78418">
        <ele>96.27</ele>
        <time>2020-12-12T09:13:09Z</time>
      </trkpt>
      <trkpt lat="49.07807" lon="0.78382">
        <ele>93.39</ele>
        <time>2020-12-12T09:13:17Z</time>
      </trkpt>
      <trkpt lat="49.07819" lon="0.7835">
        <ele>91.46</ele>
        <time>2020-12-12T09:13:27Z</time>
      </trkpt>
      <trkpt lat="49.07821" lon="0.78348">
        <ele>91.46</ele>
        <time>2020-12-12T09:13:31Z</time>
      </trkpt>
      <trkpt lat="49.07821" lon="0.78345">
        <ele>91.46</ele>
        <time>2020-12-12T09:13:32Z</time>
      </trkpt>
      <trkpt lat="49.07821" lon="0.78341">
        <ele>91.46</ele>
        <time>2020-12-12T09:13:33Z</time>
      </trkpt>
      <trkpt lat="49.07821" lon="0.78337">
        <ele>91.46</ele>
        <time>2020-12-12T09:13:34Z</time>
      </trkpt>
      <trkpt lat="49.0782" lon="0.78332">
        <ele>90.98</ele>
        <time>2020-12-12T09:13:35Z</time>
      </trkpt>
      <trkpt lat="49.07819" lon="0.78259">
        <ele>89.06</ele>
        <time>2020-12-12T09:13:44Z</time>
      </trkpt>
      <trkpt lat="49.07826" lon="0.78224">
        <ele>88.1</ele>
        <time>2020-12-12T09:13:48Z</time>
      </trkpt>
      <trkpt lat="49.0783" lon="0.78215">
        <ele>87.62</ele>
        <time>2020-12-12T09:13:49Z</time>
      </trkpt>
      <trkpt lat="49.07874" lon="0.78093">
        <ele>85.69</ele>
        <time>2020-12-12T09:14:03Z</time>
      </trkpt>
      <trkpt lat="49.07934" lon="0.77926">
        <ele>85.21</ele>
        <time>2020-12-12T09:14:20Z</time>
      </trkpt>
      <trkpt lat="49.07946" lon="0.77892">
        <ele>85.21</ele>
        <time>2020-12-12T09:14:24Z</time>
      </trkpt>
      <trkpt lat="49.07993" lon="0.77774">
        <ele>84.25</ele>
        <time>2020-12-12T09:14:40Z</time>
      </trkpt>
      <trkpt lat="49.08005" lon="0.77747">
        <ele>83.77</ele>
        <time>2020-12-12T09:14:44Z</time>
      </trkpt>
      <trkpt lat="49.08012" lon="0.77734">
        <ele>83.77</ele>
        <time>2020-12-12T09:14:46Z</time>
      </trkpt>
      <trkpt lat="49.08015" lon="0.77728">
        <ele>83.77</ele>
        <time>2020-12-12T09:14:47Z</time>
      </trkpt>
      <trkpt lat="49.0802" lon="0.77714">
        <ele>83.77</ele>
        <time>2020-12-12T09:14:49Z</time>
      </trkpt>
      <trkpt lat="49.08025" lon="0.77708">
        <ele>83.77</ele>
        <time>2020-12-12T09:14:50Z</time>
      </trkpt>
      <trkpt lat="49.08029" lon="0.77705">
        <ele>83.77</ele>
        <time>2020-12-12T09:14:51Z</time>
      </trkpt>
      <trkpt lat="49.08034" lon="0.77705">
        <ele>83.77</ele>
        <time>2020-12-12T09:14:52Z</time>
      </trkpt>
      <trkpt lat="49.08039" lon="0.77705">
        <ele>83.77</ele>
        <time>2020-12-12T09:14:53Z</time>
      </trkpt>
      <trkpt lat="49.08044" lon="0.77707">
        <ele>83.77</ele>
        <time>2020-12-12T09:14:54Z</time>
      </trkpt>
      <trkpt lat="49.08049" lon="0.7771">
        <ele>83.77</ele>
        <time>2020-12-12T09:14:55Z</time>
      </trkpt>
      <trkpt lat="49.08121" lon="0.77753">
        <ele>83.77</ele>
        <time>2020-12-12T09:15:10Z</time>
      </trkpt>
      <trkpt lat="49.08148" lon="0.77768">
        <ele>85.69</ele>
        <time>2020-12-12T09:15:18Z</time>
      </trkpt>
      <trkpt lat="49.08151" lon="0.77765">
        <ele>85.69</ele>
        <time>2020-12-12T09:15:19Z</time>
      </trkpt>
      <trkpt lat="49.08153" lon="0.7776">
        <ele>85.69</ele>
        <time>2020-12-12T09:15:20Z</time>
      </trkpt>
      <trkpt lat="49.08193" lon="0.77688">
        <ele>85.69</ele>
        <time>2020-12-12T09:15:36Z</time>
      </trkpt>
      <trkpt lat="49.08241" lon="0.77607">
        <ele>87.14</ele>
        <time>2020-12-12T09:15:56Z</time>
      </trkpt>
      <trkpt lat="49.0828" lon="0.77536">
        <ele>87.14</ele>
        <time>2020-12-12T09:16:12Z</time>
      </trkpt>
      <trkpt lat="49.08287" lon="0.77524">
        <ele>86.18</ele>
        <time>2020-12-12T09:16:14Z</time>
      </trkpt>
      <trkpt lat="49.08293" lon="0.77511">
        <ele>85.69</ele>
        <time>2020-12-12T09:16:16Z</time>
      </trkpt>
      <trkpt lat="49.08296" lon="0.77504">
        <ele>85.69</ele>
        <time>2020-12-12T09:16:17Z</time>
      </trkpt>
      <trkpt lat="49.08321" lon="0.77431">
        <ele>83.77</ele>
        <time>2020-12-12T09:16:27Z</time>
      </trkpt>
      <trkpt lat="49.08376" lon="0.77342">
        <ele>82.81</ele>
        <time>2020-12-12T09:16:41Z</time>
      </trkpt>
      <trkpt lat="49.08453" lon="0.77258">
        <ele>83.29</ele>
        <time>2020-12-12T09:17:00Z</time>
      </trkpt>
      <trkpt lat="49.08487" lon="0.77221">
        <ele>84.25</ele>
        <time>2020-12-12T09:17:09Z</time>
      </trkpt>
      <trkpt lat="49.0853" lon="0.77151">
        <ele>85.69</ele>
        <time>2020-12-12T09:17:23Z</time>
      </trkpt>
      <trkpt lat="49.08585" lon="0.77039">
        <ele>85.69</ele>
        <time>2020-12-12T09:17:42Z</time>
      </trkpt>
      <trkpt lat="49.08637" lon="0.7693">
        <ele>85.69</ele>
        <time>2020-12-12T09:17:59Z</time>
      </trkpt>
      <trkpt lat="49.08674" lon="0.76852">
        <ele>86.66</ele>
        <time>2020-12-12T09:18:15Z</time>
      </trkpt>
      <trkpt lat="49.08724" lon="0.76756">
        <ele>88.58</ele>
        <time>2020-12-12T09:18:34Z</time>
      </trkpt>
      <trkpt lat="49.08757" lon="0.76709">
        <ele>88.58</ele>
        <time>2020-12-12T09:18:45Z</time>
      </trkpt>
      <trkpt lat="49.08782" lon="0.76677">
        <ele>88.58</ele>
        <time>2020-12-12T09:18:53Z</time>
      </trkpt>
      <trkpt lat="49.08785" lon="0.76673">
        <ele>88.58</ele>
        <time>2020-12-12T09:18:54Z</time>
      </trkpt>
      <trkpt lat="49.08788" lon="0.76669">
        <ele>88.58</ele>
        <time>2020-12-12T09:18:55Z</time>
      </trkpt>
      <trkpt lat="49.08831" lon="0.76615">
        <ele>87.14</ele>
        <time>2020-12-12T09:19:09Z</time>
      </trkpt>
      <trkpt lat="49.08834" lon="0.76611">
        <ele>87.14</ele>
        <time>2020-12-12T09:19:10Z</time>
      </trkpt>
      <trkpt lat="49.08857" lon="0.76572">
        <ele>85.69</ele>
        <time>2020-12-12T09:19:24Z</time>
      </trkpt>
      <trkpt lat="49.08864" lon="0.76551">
        <ele>84.73</ele>
        <time>2020-12-12T09:19:29Z</time>
      </trkpt>
      <trkpt lat="49.08863" lon="0.76545">
        <ele>84.73</ele>
        <time>2020-12-12T09:19:30Z</time>
      </trkpt>
      <trkpt lat="49.08861" lon="0.76539">
        <ele>84.73</ele>
        <time>2020-12-12T09:19:31Z</time>
      </trkpt>
      <trkpt lat="49.08858" lon="0.76533">
        <ele>84.73</ele>
        <time>2020-12-12T09:19:32Z</time>
      </trkpt>
      <trkpt lat="49.08854" lon="0.76528">
        <ele>84.25</ele>
        <time>2020-12-12T09:19:33Z</time>
      </trkpt>
      <trkpt lat="49.08849" lon="0.76523">
        <ele>84.25</ele>
        <time>2020-12-12T09:19:34Z</time>
      </trkpt>
      <trkpt lat="49.08819" lon="0.76487">
        <ele>80.89</ele>
        <time>2020-12-12T09:19:40Z</time>
      </trkpt>
      <trkpt lat="49.08801" lon="0.76463">
        <ele>80.41</ele>
        <time>2020-12-12T09:19:44Z</time>
      </trkpt>
      <trkpt lat="49.08754" lon="0.76358">
        <ele>79.93</ele>
        <time>2020-12-12T09:20:01Z</time>
      </trkpt>
      <trkpt lat="49.08752" lon="0.76348">
        <ele>79.93</ele>
        <time>2020-12-12T09:20:03Z</time>
      </trkpt>
      <trkpt lat="49.08752" lon="0.76344">
        <ele>79.93</ele>
        <time>2020-12-12T09:20:04Z</time>
      </trkpt>
      <trkpt lat="49.08752" lon="0.7634">
        <ele>79.93</ele>
        <time>2020-12-12T09:20:05Z</time>
      </trkpt>
      <trkpt lat="49.08752" lon="0.76337">
        <ele>79.93</ele>
        <time>2020-12-12T09:20:06Z</time>
      </trkpt>
      <trkpt lat="49.08751" lon="0.76334">
        <ele>80.41</ele>
        <time>2020-12-12T09:20:16Z</time>
      </trkpt>
      <trkpt lat="49.08751" lon="0.76335">
        <ele>80.41</ele>
        <time>2020-12-12T09:20:17Z</time>
      </trkpt>
      <trkpt lat="49.08751" lon="0.76335">
        <ele>78.97</ele>
        <time>2020-12-12T09:20:33Z</time>
      </trkpt>
    </trkseg>
  </trk>
</gpx>